M I D A S
Marine Information and Data Acquisition System
Tripno 1733 of the Zeeleeuw from 2009-07-09 06:46:27 to 2009-07-09 17:26:28
Back to CruiseResearch ActivitiesStationsMapUnderway DataData graphs

EquipmentUnitsComment
TimeDGPSUTC
LatitudeDGPSDM.mWGS84
LongitudeDGPSDM.mWGS84
TemperatureSBE03/SBE38deg celciusITS90
ConductivitySBE21S/mITS90
SalinitySBE21 Practical Salinity Units
ChlorophylAChelsea fluorimeterg/lCalibrated in Aceton
Missing or incorrect values are displayed as -999
Sea surface data collected by the RV Zeeleeuw from 2009-07-09 06:41:00 to 2009-07-09 17:34:14
                                                                                    Next 1000 lines
Time Latitude Longitude Temperature Conductivity Salinity ChlorophylA
2009-07-09 06:41:10 51°13.662 2°55.956 19.8772 4.09554 29.361739 11.536091
2009-07-09 06:41:15 51°13.662 2°55.954 19.8818 4.092324 29.335528 11.536091
2009-07-09 06:41:20 51°13.663 2°55.951 19.8745 4.088694 29.306009 11.536091
2009-07-09 06:41:25 51°13.664 2°55.947 19.8768 4.088694 29.306009 11.536091
2009-07-09 06:41:30 51°13.665 2°55.944 19.8736 4.086101 29.284773 11.501267
2009-07-09 06:41:36 51°13.666 2°55.938 19.8768 4.082263 29.254145 11.466443
2009-07-09 06:41:42 51°13.668 2°55.932 19.8797 4.079773 29.233744 11.501267
2009-07-09 06:41:47 51°13.67 2°55.926 19.8724 4.078425 29.22084 11.501267
2009-07-09 06:41:53 51°13.673 2°55.919 19.8758 4.076765 29.207064 11.536091
2009-07-09 06:41:58 51°13.674 2°55.912 19.8726 4.076765 29.207064 11.536091
2009-07-09 06:42:03 51°13.677 2°55.906 19.8777 4.075313 29.19548 11.501267
2009-07-09 06:42:09 51°13.679 2°55.898 19.8779 4.074379 29.187498 11.501267
2009-07-09 06:42:14 51°13.68 2°55.891 19.8886 4.073549 29.180879 11.536091
2009-07-09 06:42:18 51°13.682 2°55.885 19.8905 4.072408 29.171243 11.640563
2009-07-09 06:42:23 51°13.683 2°55.877 19.8843 4.071371 29.163506 11.570915
2009-07-09 06:42:28 51°13.684 2°55.87 19.8832 4.071371 29.163506 11.570915
2009-07-09 06:42:34 51°13.686 2°55.861 19.8813 4.070438 29.156061 11.640563
2009-07-09 06:42:38 51°13.687 2°55.855 19.8837 4.070023 29.152752 11.77986
2009-07-09 06:42:43 51°13.688 2°55.848 19.8755 4.070438 29.155526 11.988804
2009-07-09 06:42:48 51°13.689 2°55.841 19.8897 4.072201 29.166912 12.1281
2009-07-09 06:42:54 51°13.691 2°55.832 19.8789 4.073549 29.176059 12.441517
2009-07-09 06:42:58 51°13.692 2°55.826 19.8779 4.073549 29.176059 12.441517
2009-07-09 06:43:03 51°13.692 2°55.819 19.8794 4.074172 29.181022 12.580813
2009-07-09 06:43:08 51°13.694 2°55.812 19.8789 4.075001 29.188176 12.476341
2009-07-09 06:43:13 51°13.695 2°55.805 19.8759 4.075831 29.194258 12.476341
2009-07-09 06:43:18 51°13.695 2°55.799 19.8864 4.076454 29.199757 12.476341
2009-07-09 06:43:23 51°13.696 2°55.792 19.8764 4.077387 29.206667 12.476341
2009-07-09 06:43:28 51°13.697 2°55.786 19.8824 4.077387 29.206667 12.476341
2009-07-09 06:43:33 51°13.697 2°55.78 19.8614 4.077387 29.208275 12.441517
2009-07-09 06:43:38 51°13.698 2°55.775 19.8602 4.07718 29.207693 12.406692
2009-07-09 06:43:43 51°13.698 2°55.769 19.8693 4.076972 29.20711 12.371868
2009-07-09 06:43:48 51°13.698 2°55.764 19.8736 4.07718 29.208229 12.441517
2009-07-09 06:43:53 51°13.699 2°55.76 19.8776 4.066185 29.12001 12.720109
2009-07-09 06:43:58 51°13.699 2°55.756 19.8726 4.066185 29.12001 12.720109
2009-07-09 06:44:03 51°13.7 2°55.754 19.8764 4.07998 29.231106 13.033525
2009-07-09 06:44:09 51°13.7 2°55.751 19.8657 4.080603 29.238755 13.277294
2009-07-09 06:44:13 51°13.701 2°55.751 19.864 4.081536 29.249425 13.41659
2009-07-09 06:44:18 51°13.701 2°55.75 19.8607 4.083092 29.262379 13.451414
2009-07-09 06:44:23 51°13.701 2°55.75 19.8686 4.084752 29.274012 13.486238
2009-07-09 06:44:28 51°13.702 2°55.75 19.8743 4.084752 29.274012 13.486238
2009-07-09 06:44:33 51°13.703 2°55.75 19.8688 4.085478 29.279269 13.555886
2009-07-09 06:44:38 51°13.704 2°55.75 19.8712 4.085893 29.28258 13.486238
2009-07-09 06:44:43 51°13.704 2°55.75 19.8595 4.085582 29.280634 13.521062
2009-07-09 06:44:48 51°13.704 2°55.749 19.8661 4.085167 29.278936 13.555886
2009-07-09 06:44:54 51°13.704 2°55.748 19.8584 4.085686 29.282537 13.59071
2009-07-09 06:44:58 51°13.704 2°55.746 19.8603 4.085686 29.282537 13.59071
2009-07-09 06:45:03 51°13.703 2°55.745 19.8661 4.085893 29.283118 13.660358
2009-07-09 06:45:08 51°13.702 2°55.743 19.8667 4.085893 29.283118 13.730007
2009-07-09 06:45:13 51°13.701 2°55.742 19.8575 4.085997 29.284483 13.799655
2009-07-09 06:45:18 51°13.701 2°55.74 19.8581 4.086308 29.288042 13.938951
2009-07-09 06:45:22 51°13.7 2°55.739 19.8588 4.086515 29.291312 14.008599
2009-07-09 06:45:27 51°13.7 2°55.738 19.8515 4.086515 29.291312 14.008599
2009-07-09 06:45:32 51°13.699 2°55.737 19.8455 4.086723 29.293505 14.008599
2009-07-09 06:45:38 51°13.699 2°55.737 19.8683 4.088175 29.305097 13.938951
2009-07-09 06:45:42 51°13.699 2°55.736 19.8662 4.087242 29.298183 13.973775
2009-07-09 06:45:47 51°13.7 2°55.736 19.8511 4.087345 29.299549 13.938951
2009-07-09 06:45:52 51°13.701 2°55.736 19.854 4.08776 29.3034 13.938951
2009-07-09 06:45:57 51°13.703 2°55.735 19.8605 4.08776 29.3034 13.938951
2009-07-09 06:46:02 51°13.704 2°55.735 19.8657 4.087864 29.306919 13.938951
2009-07-09 06:46:06 51°13.706 2°55.734 19.8593 4.088279 29.311847 13.904127
2009-07-09 06:46:11 51°13.709 2°55.733 19.8585 4.090457 29.327623 13.904127
2009-07-09 06:46:16 51°13.712 2°55.732 19.8712 4.092324 29.341993 13.973775
2009-07-09 06:46:21 51°13.715 2°55.73 19.8558 4.093154 29.350237 14.008599
2009-07-09 06:46:26 51°13.719 2°55.727 19.8585 4.093154 29.350237 14.008599
2009-07-09 06:46:31 51°13.724 2°55.724 19.8693 4.094192 29.357981 14.008599
2009-07-09 06:46:35 51°13.728 2°55.721 19.8669 4.095021 29.363529 14.043423
2009-07-09 06:46:40 51°13.734 2°55.716 19.8625 4.095333 29.365475 14.008599
2009-07-09 06:46:46 51°13.741 2°55.709 19.8523 4.095333 29.364396 13.938951
2009-07-09 06:46:50 51°13.747 2°55.704 19.8565 4.09471 29.358887 13.938951
2009-07-09 06:46:55 51°13.755 2°55.698 19.8574 4.09471 29.358887 13.938951
2009-07-09 06:47:00 51°13.763 2°55.691 19.8455 4.093465 29.349487 13.938951
2009-07-09 06:47:05 51°13.772 2°55.684 19.8457 4.092221 29.337932 13.904127
2009-07-09 06:47:10 51°13.781 2°55.676 19.8439 4.090561 29.32522 13.904127
2009-07-09 06:47:15 51°13.79 2°55.669 19.8452 4.088486 29.309734 13.869303
2009-07-09 06:47:20 51°13.801 2°55.662 19.8398 4.085997 29.290937 13.869303
2009-07-09 06:47:25 51°13.811 2°55.653 19.839 4.085997 29.290937 13.869303
2009-07-09 06:47:30 51°13.821 2°55.646 19.8412 4.084441 29.279592 13.904127
2009-07-09 06:47:35 51°13.832 2°55.637 19.8371 4.082159 29.264064 13.834479
2009-07-09 06:47:39 51°13.841 2°55.631 19.8424 4.080914 29.256277 13.904127
2009-07-09 06:47:45 51°13.854 2°55.62 19.8382 4.080188 29.252631 13.938951
2009-07-09 06:47:50 51°13.865 2°55.612 19.8337 4.07884 29.24294 14.008599
2009-07-09 06:47:55 51°13.876 2°55.603 19.8339 4.07884 29.24294 14.008599
2009-07-09 06:47:59 51°13.885 2°55.596 19.8312 4.07635 29.223605 14.147895
2009-07-09 06:48:05 51°13.899 2°55.585 19.8333 4.072927 29.197356 14.322015
2009-07-09 06:48:10 51°13.91 2°55.576 19.8434 4.069919 29.17442 14.496136
2009-07-09 06:48:15 51°13.922 2°55.567 19.8271 4.067326 29.154796 14.635432
2009-07-09 06:48:19 51°13.932 2°55.559 19.8308 4.064629 29.134345 14.809552
2009-07-09 06:48:25 51°13.946 2°55.548 19.8315 4.064629 29.134345 14.809552
2009-07-09 06:48:30 51°13.958 2°55.539 19.8146 4.062659 29.120759 14.983672
2009-07-09 06:48:35 51°13.97 2°55.53 19.8149 4.062036 29.116863 15.053321
2009-07-09 06:48:40 51°13.983 2°55.52 19.8162 4.062762 29.122122 15.157793
2009-07-09 06:48:45 51°13.995 2°55.511 19.8183 4.063903 29.131228 15.297089
2009-07-09 06:48:50 51°14.007 2°55.502 19.8168 4.064526 29.138336 15.366737
2009-07-09 06:48:55 51°14.019 2°55.493 19.8181 4.064526 29.138336 15.366737
2009-07-09 06:48:59 51°14.029 2°55.485 19.8095 4.066289 29.152946 15.436385
2009-07-09 06:49:05 51°14.044 2°55.474 19.8062 4.067534 29.165026 15.540857
2009-07-09 06:49:10 51°14.056 2°55.465 19.8103 4.069608 29.18427 15.610505
2009-07-09 06:49:14 51°14.066 2°55.458 19.8026 4.072098 29.205221 15.575681
2009-07-09 06:49:20 51°14.081 2°55.447 19.7972 4.074898 29.228661 15.610505
2009-07-09 06:49:25 51°14.093 2°55.437 19.7859 4.074898 29.228661 15.610505
2009-07-09 06:49:30 51°14.105 2°55.428 19.7875 4.077388 29.24962 15.784626
2009-07-09 06:49:35 51°14.116 2°55.418 19.786 4.081226 29.281894 15.784626
2009-07-09 06:49:39 51°14.126 2°55.41 19.7858 4.084649 29.311938 15.81945
2009-07-09 06:49:45 51°14.14 2°55.397 19.7861 4.088902 29.347546 15.923922
2009-07-09 06:49:50 51°14.151 2°55.387 19.7899 4.092844 29.382297 15.923922
2009-07-09 06:49:55 51°14.163 2°55.376 19.7816 4.092844 29.382297 15.923922
2009-07-09 06:49:59 51°14.172 2°55.367 19.7787 4.095748 29.409306 15.958746
2009-07-09 06:50:05 51°14.185 2°55.352 19.7774 4.098031 29.431347 15.99357
2009-07-09 06:50:10 51°14.196 2°55.34 19.7668 4.100831 29.455919 15.958746
2009-07-09 06:50:14 51°14.205 2°55.329 19.772 4.102387 29.469995 15.889098
2009-07-09 06:50:19 51°14.216 2°55.317 19.77 4.103114 29.47689 15.958746
2009-07-09 06:50:25 51°14.228 2°55.301 19.7636 4.103114 29.47689 15.958746
2009-07-09 06:50:30 51°14.239 2°55.287 19.7729 4.102906 29.476857 15.99357
2009-07-09 06:50:35 51°14.249 2°55.272 19.7653 4.103943 29.487329 16.028394
2009-07-09 06:50:40 51°14.259 2°55.258 19.7634 4.105707 29.503072 16.063218
2009-07-09 06:50:45 51°14.268 2°55.242 19.7599 4.107989 29.524056 16.098042
2009-07-09 06:50:50 51°14.277 2°55.226 19.7563 4.109649 29.538975 16.16769
2009-07-09 06:50:55 51°14.286 2°55.209 19.7644 4.109649 29.538975 16.16769
2009-07-09 06:50:59 51°14.293 2°55.196 19.7578 4.111309 29.553353 16.132866
2009-07-09 06:51:05 51°14.304 2°55.175 19.7447 4.11245 29.563578 16.237338
2009-07-09 06:51:10 51°14.312 2°55.158 19.7455 4.112346 29.564381 16.272162
2009-07-09 06:51:14 51°14.319 2°55.144 19.7534 4.11494 29.586785 16.306987
2009-07-09 06:51:20 51°14.329 2°55.122 19.7493 4.117429 29.609454 16.341811
2009-07-09 06:51:25 51°14.338 2°55.105 19.7493 4.117429 29.609454 16.341811
2009-07-09 06:51:30 51°14.347 2°55.087 19.7503 4.120126 29.632699 16.376635
2009-07-09 06:51:34 51°14.354 2°55.072 19.7438 4.123239 29.658182 16.411459
2009-07-09 06:51:40 51°14.364 2°55.05 19.7502 4.124898 29.67367 16.481107
2009-07-09 06:51:44 51°14.371 2°55.034 19.7308 4.127388 29.695813 16.481107
2009-07-09 06:51:50 51°14.38 2°55.011 19.7256 4.131538 29.730173 16.550755
2009-07-09 06:51:55 51°14.388 2°54.991 19.7381 4.131538 29.730173 16.550755
2009-07-09 06:52:00 51°14.397 2°54.971 19.7348 4.135065 29.758454 16.655227
2009-07-09 06:52:05 51°14.405 2°54.951 19.7207 4.138073 29.783128 16.690051
2009-07-09 06:52:10 51°14.413 2°54.931 19.7323 4.141912 29.814462 16.724875
2009-07-09 06:52:15 51°14.421 2°54.91 19.7328 4.145024 29.842726 16.759699
2009-07-09 06:52:20 51°14.43 2°54.889 19.7377 4.147307 29.86324 16.864171
2009-07-09 06:52:25 51°14.438 2°54.867 19.7433 4.147307 29.86324 16.864171
2009-07-09 06:52:30 51°14.446 2°54.846 19.7244 4.149485 29.882925 16.864171
2009-07-09 06:52:35 51°14.455 2°54.825 19.7315 4.151145 29.8979 16.933819
2009-07-09 06:52:40 51°14.463 2°54.803 19.7299 4.15073 29.896223 16.794523
2009-07-09 06:52:45 51°14.471 2°54.779 19.7368 4.149589 29.887615 16.759699
2009-07-09 06:52:50 51°14.479 2°54.757 19.7291 4.148344 29.876521 16.724875
2009-07-09 06:52:54 51°14.485 2°54.739 19.7103 4.148344 29.876521 16.724875
2009-07-09 06:53:00 51°14.495 2°54.711 19.6845 4.149796 29.885974 16.794523
2009-07-09 06:53:05 51°14.503 2°54.688 19.6723 4.150834 29.894851 16.933819
2009-07-09 06:53:10 51°14.511 2°54.665 19.6645 4.153428 29.918427 16.898995
2009-07-09 06:53:14 51°14.518 2°54.647 19.6565 4.155295 29.93397 16.898995
2009-07-09 06:53:19 51°14.526 2°54.624 19.6479 4.156955 29.946744 17.10794
2009-07-09 06:53:25 51°14.535 2°54.596 19.6555 4.156955 29.946744 17.10794
2009-07-09 06:53:30 51°14.542 2°54.571 19.6557 4.16318 30.001153 17.769597
2009-07-09 06:53:34 51°14.548 2°54.552 19.6569 4.176252 30.116727 18.152661
2009-07-09 06:53:40 51°14.557 2°54.522 19.645 4.188703 30.229106 18.57055
2009-07-09 06:53:45 51°14.564 2°54.498 19.637 4.195965 30.297059 18.74467
2009-07-09 06:53:50 51°14.571 2°54.473 19.6468 4.207586 30.397371 18.849142
2009-07-09 06:53:54 51°14.576 2°54.453 19.6374 4.207586 30.397371 18.849142
2009-07-09 06:53:59 51°14.583 2°54.428 19.6405 4.214953 30.461792 18.953615
2009-07-09 06:54:04 51°14.589 2°54.403 19.6367 4.218585 30.494445 18.883966
2009-07-09 06:54:10 51°14.597 2°54.373 19.6362 4.221801 30.52207 18.918791
2009-07-09 06:54:14 51°14.602 2°54.352 19.6351 4.225537 30.55445 18.988439
2009-07-09 06:54:19 51°14.608 2°54.327 19.6216 4.229376 30.588242 18.918791
2009-07-09 06:54:24 51°14.615 2°54.302 19.6336 4.229376 30.588242 18.918791
2009-07-09 06:54:30 51°14.623 2°54.272 19.6305 4.230829 30.60279 18.883966
2009-07-09 06:54:34 51°14.629 2°54.253 19.618 4.230829 30.603922 18.779494
2009-07-09 06:54:39 51°14.636 2°54.228 19.6081 4.229584 30.595007 18.814318
2009-07-09 06:54:44 51°14.645 2°54.205 19.6093 4.230414 30.602837 18.918791
2009-07-09 06:54:50 51°14.654 2°54.177 19.6001 4.234668 30.639433 19.127735
2009-07-09 06:54:54 51°14.662 2°54.161 19.5847 4.234668 30.639433 19.127735
2009-07-09 06:55:00 51°14.674 2°54.135 19.5795 4.241516 30.698119 19.267031
2009-07-09 06:55:04 51°14.682 2°54.119 19.5628 4.246186 30.737528 19.406327
2009-07-09 06:55:10 51°14.696 2°54.096 19.5514 4.253034 30.795121 19.510799
2009-07-09 06:55:14 51°14.705 2°54.083 19.5505 4.258223 30.841605 19.650096
2009-07-09 06:55:19 51°14.717 2°54.068 19.5398 4.265175 30.901228 19.650096
2009-07-09 06:55:25 51°14.733 2°54.053 19.5182 4.265175 30.901228 19.650096
2009-07-09 06:55:30 51°14.746 2°54.04 19.5137 4.275656 30.99286 19.963512
2009-07-09 06:55:34 51°14.757 2°54.031 19.5151 4.285826 31.082624 20.137632
2009-07-09 06:55:39 51°14.77 2°54.022 19.4997 4.300251 31.210402 20.276929
2009-07-09 06:55:44 51°14.785 2°54.014 19.4924 4.308657 31.284895 20.416225
2009-07-09 06:55:50 51°14.802 2°54.005 19.4898 4.318517 31.371226 20.729641
2009-07-09 06:55:54 51°14.813 2°54.002 19.503 4.318517 31.371226 20.729641
2009-07-09 06:55:59 51°14.827 2°53.999 19.4975 4.329725 31.474413 20.868938
2009-07-09 06:56:05 51°14.844 2°53.999 19.4793 4.338444 31.553388 20.834113
2009-07-09 06:56:10 51°14.858 2°54.002 19.4758 4.342388 31.59246 20.938586
2009-07-09 06:56:14 51°14.869 2°54.002 19.4884 4.346124 31.629868 20.834113
2009-07-09 06:56:18 51°14.88 2°54.006 19.479 4.34903 31.658782 20.868938
2009-07-09 06:56:24 51°14.896 2°54.013 19.4669 4.34903 31.658782 20.868938
2009-07-09 06:56:30 51°14.912 2°54.021 19.4646 4.34903 31.661135 20.764465
2009-07-09 06:56:34 51°14.922 2°54.028 19.4656 4.349964 31.671672 20.868938
2009-07-09 06:56:39 51°14.934 2°54.039 19.4602 4.352248 31.695542 20.799289
2009-07-09 06:56:44 51°14.945 2°54.051 19.4485 4.353597 31.710053 20.903762
2009-07-09 06:56:50 51°14.958 2°54.066 19.4471 4.354946 31.723389 20.868938
2009-07-09 06:56:54 51°14.967 2°54.076 19.441 4.354946 31.723389 20.868938
2009-07-09 06:56:59 51°14.977 2°54.091 19.4459 4.35723 31.744919 20.799289
2009-07-09 06:57:04 51°14.987 2°54.105 19.4379 4.359929 31.772197 20.938586
2009-07-09 06:57:10 51°14.998 2°54.125 19.4274 4.362108 31.792897 21.008234
2009-07-09 06:57:14 51°15.005 2°54.137 19.4229 4.363769 31.811742 20.97341
2009-07-09 06:57:20 51°15.015 2°54.157 19.4154 4.365949 31.833638 20.834113
2009-07-09 06:57:24 51°15.022 2°54.171 19.4209 4.365949 31.833638 20.834113
2009-07-09 06:57:30 51°15.033 2°54.191 19.4085 4.367194 31.847931 20.938586
2009-07-09 06:57:34 51°15.039 2°54.205 19.4123 4.369166 31.86637 21.008234
2009-07-09 06:57:40 51°15.049 2°54.226 19.4066 4.371035 31.885747 21.112706
2009-07-09 06:57:44 51°15.056 2°54.239 19.3977 4.372696 31.904032 21.008234
2009-07-09 06:57:50 51°15.066 2°54.259 19.4034 4.373941 31.919533 21.077882
2009-07-09 06:57:54 51°15.074 2°54.272 19.395 4.373941 31.919533 21.077882
2009-07-09 06:57:59 51°15.082 2°54.289 19.3889 4.374875 31.931906 21.043058
2009-07-09 06:58:05 51°15.093 2°54.309 19.3882 4.375498 31.940554 20.938586
2009-07-09 06:58:10 51°15.103 2°54.326 19.3846 4.376121 31.947418 21.043058
2009-07-09 06:58:14 51°15.111 2°54.339 19.3806 4.376951 31.957763 21.043058
2009-07-09 06:58:19 51°15.121 2°54.356 19.372 4.377782 31.96811 21.043058
2009-07-09 06:58:24 51°15.131 2°54.372 19.3705 4.377782 31.96811 21.043058
2009-07-09 06:58:30 51°15.143 2°54.392 19.3729 4.378716 31.978711 21.182354
2009-07-09 06:58:34 51°15.15 2°54.404 19.3639 4.37965 31.989314 21.077882
2009-07-09 06:58:39 51°15.16 2°54.42 19.3589 4.380377 31.999418 21.14753
2009-07-09 06:58:44 51°15.169 2°54.436 19.3538 4.381 32.008678 21.043058
2009-07-09 06:58:50 51°15.182 2°54.453 19.3478 4.381519 32.016496 21.043058
2009-07-09 06:58:54 51°15.19 2°54.465 19.3446 4.381519 32.016496 21.043058
2009-07-09 06:58:58 51°15.198 2°54.478 19.3395 4.381623 32.020329 21.043058
2009-07-09 06:59:04 51°15.211 2°54.494 19.3322 4.381727 32.024162 21.043058
2009-07-09 06:59:09 51°15.222 2°54.508 19.3362 4.381727 32.027148 21.043058
2009-07-09 06:59:14 51°15.233 2°54.521 19.3329 4.381623 32.03108 21.043058
2009-07-09 06:59:20 51°15.245 2°54.539 19.3251 4.381312 32.032719 21.182354
2009-07-09 06:59:24 51°15.255 2°54.547 19.3228 4.381312 32.032719 21.182354
2009-07-09 06:59:30 51°15.268 2°54.564 19.3261 4.381104 32.036402 21.14753
2009-07-09 06:59:35 51°15.279 2°54.576 19.3228 4.381 32.040338 21.182354
2009-07-09 06:59:40 51°15.29 2°54.59 19.3257 4.378821 32.026112 21.217178
2009-07-09 06:59:45 51°15.302 2°54.602 19.3259 4.380793 32.045819 21.252002
2009-07-09 06:59:50 51°15.313 2°54.616 19.3272 4.380793 32.047613 21.32165
2009-07-09 06:59:54 51°15.323 2°54.624 19.3238 4.380793 32.047613 21.32165
2009-07-09 06:59:59 51°15.334 2°54.638 19.3277 4.381312 32.054848 21.286826
2009-07-09 07:00:04 51°15.346 2°54.649 19.3287 4.38235 32.066328 21.217178
2009-07-09 07:00:10 51°15.36 2°54.664 19.335 4.383803 32.078809 21.14753
2009-07-09 07:00:14 51°15.369 2°54.674 19.3373 4.385256 32.091291 21.077882
2009-07-09 07:00:19 51°15.381 2°54.686 19.3324 4.386606 32.102325 21.043058
2009-07-09 07:00:24 51°15.392 2°54.699 19.3389 4.386606 32.102325 21.043058
2009-07-09 07:00:30 51°15.406 2°54.714 19.3374 4.387851 32.113112 20.903762
2009-07-09 07:00:34 51°15.416 2°54.723 19.3434 4.389512 32.125495 20.97341
2009-07-09 07:00:39 51°15.427 2°54.735 19.3444 4.390965 32.13678 20.97341
2009-07-09 07:00:44 51°15.439 2°54.747 19.3414 4.392626 32.149163 20.97341
2009-07-09 07:00:50 51°15.453 2°54.762 19.3446 4.394909 32.165439 20.97341
2009-07-09 07:00:54 51°15.462 2°54.771 19.3432 4.394909 32.165439 20.97341
2009-07-09 07:00:59 51°15.474 2°54.784 19.3436 4.39657 32.177822 20.868938
2009-07-09 07:01:04 51°15.486 2°54.796 19.3446 4.398438 32.191301 20.799289
2009-07-09 07:01:10 51°15.5 2°54.81 19.3494 4.400514 32.20708 20.868938
2009-07-09 07:01:14 51°15.509 2°54.82 19.3493 4.402279 32.220312 20.868938
2009-07-09 07:01:19 51°15.521 2°54.833 19.3496 4.403836 32.231845 20.938586
2009-07-09 07:01:24 51°15.533 2°54.845 19.3491 4.403836 32.231845 20.938586
2009-07-09 07:01:30 51°15.547 2°54.859 19.352 4.405289 32.243734 20.799289
2009-07-09 07:01:35 51°15.558 2°54.872 19.356 4.406742 32.254418 20.799289
2009-07-09 07:01:39 51°15.568 2°54.882 19.3631 4.407988 32.264609 20.764465
2009-07-09 07:01:44 51°15.579 2°54.895 19.3572 4.409234 32.274197 20.764465
2009-07-09 07:01:50 51°15.593 2°54.909 19.3596 4.410272 32.281485 20.729641
2009-07-09 07:01:54 51°15.602 2°54.92 19.3616 4.410272 32.281485 20.729641
2009-07-09 07:01:59 51°15.614 2°54.931 19.363 4.411517 32.290471 20.729641
2009-07-09 07:02:04 51°15.625 2°54.944 19.3665 4.412659 32.29921 20.729641
2009-07-09 07:02:10 51°15.639 2°54.958 19.366 4.413489 32.303592 20.694817
2009-07-09 07:02:14 51°15.648 2°54.97 19.3668 4.414112 32.306879 20.694817
2009-07-09 07:02:19 51°15.66 2°54.981 19.3685 4.414943 32.312467 20.659993
2009-07-09 07:02:24 51°15.671 2°54.995 19.3716 4.414943 32.312467 20.659993
2009-07-09 07:02:30 51°15.686 2°55.008 19.3685 4.415358 32.314657 20.659993
2009-07-09 07:02:34 51°15.694 2°55.019 19.3693 4.415773 32.316848 20.625169
2009-07-09 07:02:39 51°15.706 2°55.031 19.3694 4.416292 32.319285 20.694817
2009-07-09 07:02:45 51°15.72 2°55.046 19.374 4.416707 32.321475 20.694817
2009-07-09 07:02:50 51°15.73 2°55.061 19.3781 4.417122 32.323665 20.903762
2009-07-09 07:02:54 51°15.739 2°55.071 19.3804 4.417122 32.323665 20.903762
2009-07-09 07:02:59 51°15.748 2°55.088 19.3802 4.417641 32.326705 20.868938
2009-07-09 07:03:04 51°15.759 2°55.101 19.3794 4.417122 32.321856 20.903762
2009-07-09 07:03:10 51°15.769 2°55.122 19.3861 4.417849 32.327197 20.834113
2009-07-09 07:03:14 51°15.776 2°55.135 19.381 4.417953 32.326839 20.868938
2009-07-09 07:03:19 51°15.784 2°55.153 19.3867 4.418472 32.329878 20.868938
2009-07-09 07:03:25 51°15.794 2°55.174 19.3855 4.418472 32.329878 20.868938
2009-07-09 07:03:30 51°15.799 2°55.194 19.3871 4.418368 32.326617 20.834113
2009-07-09 07:03:34 51°15.805 2°55.209 19.3903 4.418472 32.325657 20.868938
2009-07-09 07:03:39 51°15.811 2°55.228 19.4046 4.418472 32.325054 20.799289
2009-07-09 07:03:45 51°15.817 2°55.251 19.3974 4.418472 32.323245 20.834113
2009-07-09 07:03:50 51°15.823 2°55.271 19.3941 4.418887 32.324832 20.868938
2009-07-09 07:03:55 51°15.828 2°55.291 19.3951 4.418887 32.324832 20.868938
2009-07-09 07:03:59 51°15.832 2°55.307 19.3933 4.419094 32.325324 20.903762
2009-07-09 07:04:05 51°15.837 2°55.331 19.3892 4.418887 32.323024 20.903762
2009-07-09 07:04:10 51°15.843 2°55.351 19.394 4.419302 32.32461 20.834113
2009-07-09 07:04:14 51°15.846 2°55.368 19.3926 4.419302 32.322199 20.834113
2009-07-09 07:04:19 51°15.85 2°55.388 19.3948 4.419509 32.322089 21.077882
2009-07-09 07:04:24 51°15.855 2°55.408 19.3917 4.419509 32.322089 21.077882
2009-07-09 07:04:30 51°15.86 2°55.433 19.3958 4.419509 32.321486 20.868938
2009-07-09 07:04:34 51°15.864 2°55.449 19.3931 4.419094 32.318694 21.077882
2009-07-09 07:04:39 51°15.868 2°55.47 19.3963 4.41899 32.317846 21.14753
2009-07-09 07:04:44 51°15.873 2°55.489 19.3934 4.41899 32.317846 21.252002
2009-07-09 07:04:50 51°15.878 2°55.514 19.3978 4.418887 32.318202 21.112706
2009-07-09 07:04:54 51°15.883 2°55.53 19.3953 4.418887 32.318202 21.112706
2009-07-09 07:04:59 51°15.888 2°55.55 19.3952 4.418679 32.316505 21.182354
2009-07-09 07:05:05 51°15.894 2°55.574 19.3951 4.418575 32.315054 21.252002
2009-07-09 07:05:10 51°15.899 2°55.595 19.3947 4.418368 32.312754 21.32165
2009-07-09 07:05:14 51°15.903 2°55.611 19.3994 4.41816 32.311057 21.426122
2009-07-09 07:05:19 51°15.909 2°55.63 19.4 4.417952 32.308757 21.460946
2009-07-09 07:05:24 51°15.913 2°55.651 19.3988 4.417952 32.308757 21.460946
2009-07-09 07:05:30 51°15.921 2°55.674 19.4048 4.417745 32.30706 21.426122
2009-07-09 07:05:34 51°15.924 2°55.691 19.4009 4.417433 32.303912 21.426122
2009-07-09 07:05:38 51°15.929 2°55.706 19.3932 4.417018 32.300518 21.460946
2009-07-09 07:05:44 51°15.936 2°55.73 19.4034 4.416603 32.297124 21.356474
2009-07-09 07:05:50 51°15.942 2°55.754 19.4041 4.416291 32.293374 21.32165
2009-07-09 07:05:55 51°15.947 2°55.774 19.403 4.416291 32.293374 21.32165
2009-07-09 07:05:59 51°15.953 2°55.789 19.4006 4.416084 32.291075 21.252002
2009-07-09 07:06:04 51°15.958 2°55.809 19.4082 4.415669 32.28708 21.217178
2009-07-09 07:06:10 51°15.966 2°55.832 19.4027 4.415253 32.283084 21.32165
2009-07-09 07:06:14 51°15.97 2°55.848 19.403 4.414734 32.278842 21.356474
2009-07-09 07:06:19 51°15.977 2°55.866 19.3987 4.414319 32.274847 21.217178
2009-07-09 07:06:24 51°15.983 2°55.886 19.4019 4.414319 32.274847 21.217178
2009-07-09 07:06:30 51°15.991 2°55.908 19.4024 4.413696 32.269156 21.217178
2009-07-09 07:06:34 51°15.995 2°55.924 19.4099 4.413281 32.26456 21.32165
2009-07-09 07:06:40 51°16.002 2°55.947 19.4061 4.412762 32.260319 21.32165
2009-07-09 07:06:44 51°16.008 2°55.962 19.4089 4.412139 32.255229 21.217178
2009-07-09 07:06:50 51°16.014 2°55.986 19.4059 4.411309 32.248444 21.252002
2009-07-09 07:06:54 51°16.02 2°56.001 19.4023 4.411309 32.248444 21.252002
2009-07-09 07:07:00 51°16.027 2°56.024 19.4034 4.410686 32.243956 21.286826
2009-07-09 07:07:05 51°16.032 2°56.044 19.4075 4.410167 32.238513 21.286826
2009-07-09 07:07:10 51°16.039 2°56.063 19.402 4.409752 32.233919 21.252002
2009-07-09 07:07:14 51°16.043 2°56.078 19.4062 4.409025 32.227382 21.252002
2009-07-09 07:07:19 51°16.05 2°56.097 19.4019 4.408091 32.21975 21.32165
2009-07-09 07:07:25 51°16.056 2°56.121 19.4079 4.408091 32.21975 21.32165
2009-07-09 07:07:30 51°16.064 2°56.139 19.4059 4.407364 32.214414 21.356474
2009-07-09 07:07:34 51°16.067 2°56.155 19.4073 4.405496 32.19975 21.391298
2009-07-09 07:07:39 51°16.074 2°56.174 19.4081 4.406015 32.20339 21.356474
2009-07-09 07:07:44 51°16.08 2°56.193 19.4096 4.404769 32.193815 21.495771
2009-07-09 07:07:50 51°16.087 2°56.217 19.4017 4.404458 32.191871 21.495771
2009-07-09 07:07:54 51°16.093 2°56.231 19.4093 4.404458 32.191871 21.495771
2009-07-09 07:07:59 51°16.098 2°56.251 19.4095 4.403524 32.18364 21.600243
2009-07-09 07:08:04 51°16.105 2°56.269 19.4051 4.403316 32.181344 21.495771
2009-07-09 07:08:10 51°16.111 2°56.293 19.4016 4.402382 32.173114 21.530595
2009-07-09 07:08:14 51°16.116 2°56.307 19.4069 4.401759 32.166828 21.739539
2009-07-09 07:08:20 51°16.124 2°56.331 19.4058 4.401759 32.166828 21.669891
2009-07-09 07:08:24 51°16.129 2°56.346 19.4077 4.401759 32.166828 21.669891
2009-07-09 07:08:30 51°16.136 2°56.369 19.4023 4.40124 32.16259 21.635067
2009-07-09 07:08:34 51°16.141 2°56.384 19.4026 4.400929 32.158848 21.635067
2009-07-09 07:08:39 51°16.148 2°56.403 19.4068 4.400513 32.156056 21.704715
2009-07-09 07:08:45 51°16.155 2°56.426 19.4024 4.399683 32.150473 21.669891
2009-07-09 07:08:50 51°16.161 2°56.446 19.4082 4.399164 32.146234 21.809187
2009-07-09 07:08:54 51°16.167 2°56.46 19.405 4.399164 32.146234 21.809187
2009-07-09 07:09:00 51°16.173 2°56.484 19.4081 4.398645 32.141996 21.774363
2009-07-09 07:09:05 51°16.18 2°56.503 19.4071 4.398022 32.137509 21.774363
2009-07-09 07:09:10 51°16.186 2°56.521 19.4072 4.397711 32.134966 21.878835
2009-07-09 07:09:14 51°16.192 2°56.536 19.4095 4.397296 32.132174 21.809187
2009-07-09 07:09:19 51°16.198 2°56.556 19.4106 4.396881 32.128185 21.844011
2009-07-09 07:09:24 51°16.205 2°56.574 19.4113 4.396881 32.128185 21.844011
2009-07-09 07:09:30 51°16.212 2°56.597 19.4132 4.396569 32.125642 21.948483
2009-07-09 07:09:34 51°16.217 2°56.613 19.408 4.396258 32.1225 21.913659
2009-07-09 07:09:39 51°16.224 2°56.631 19.4101 4.39605 32.120206 22.018131
2009-07-09 07:09:44 51°16.23 2°56.651 19.4147 4.395739 32.117065 21.948483
2009-07-09 07:09:50 51°16.238 2°56.674 19.4096 4.395739 32.116467 21.948483
2009-07-09 07:09:54 51°16.242 2°56.689 19.4103 4.395739 32.116467 21.948483
2009-07-09 07:09:59 51°16.249 2°56.708 19.4115 4.395531 32.114173 21.878835
2009-07-09 07:10:04 51°16.255 2°56.728 19.4128 4.395324 32.11188 21.948483
2009-07-09 07:10:10 51°16.264 2°56.75 19.4115 4.395116 32.110185 21.878835
2009-07-09 07:10:14 51°16.268 2°56.766 19.4131 4.395012 32.109338 21.878835
2009-07-09 07:10:19 51°16.275 2°56.784 19.4082 4.394908 32.107294 21.948483
2009-07-09 07:10:24 51°16.281 2°56.804 19.4076 4.394908 32.107294 21.948483
2009-07-09 07:10:30 51°16.288 2°56.827 19.4107 4.394701 32.105599 22.087779
2009-07-09 07:10:34 51°16.293 2°56.843 19.4123 4.394493 32.103904 22.018131
2009-07-09 07:10:39 51°16.3 2°56.861 19.4087 4.394182 32.101362 22.052955
2009-07-09 07:10:44 51°16.305 2°56.881 19.41 4.393974 32.100265 22.122603
2009-07-09 07:10:50 51°16.313 2°56.904 19.4118 4.393767 32.09857 22.087779
2009-07-09 07:10:54 51°16.318 2°56.919 19.4091 4.393767 32.09857 22.087779
2009-07-09 07:11:00 51°16.326 2°56.942 19.414 4.393559 32.097473 21.948483
2009-07-09 07:11:04 51°16.332 2°56.957 19.4128 4.393455 32.096626 21.948483
2009-07-09 07:11:10 51°16.34 2°56.979 19.4121 4.393351 32.09518 22.157428
2009-07-09 07:11:14 51°16.345 2°56.995 19.4123 4.393248 32.094333 22.087779
2009-07-09 07:11:19 51°16.353 2°57.013 19.4125 4.39304 32.092638 22.087779
2009-07-09 07:11:25 51°16.361 2°57.035 19.4138 4.39304 32.092638 22.087779
2009-07-09 07:11:30 51°16.368 2°57.054 19.4137 4.392936 32.091791 22.087779
2009-07-09 07:11:34 51°16.373 2°57.069 19.4153 4.392729 32.089498 22.192252
2009-07-09 07:11:39 51°16.381 2°57.087 19.4136 4.392625 32.088651 22.192252
2009-07-09 07:11:44 51°16.389 2°57.106 19.4148 4.392417 32.086358 22.157428
2009-07-09 07:11:50 51°16.397 2°57.129 19.4169 4.39221 32.084066 22.2619
2009-07-09 07:11:54 51°16.404 2°57.142 19.4184 4.39221 32.084066 22.2619
2009-07-09 07:11:59 51°16.41 2°57.162 19.4199 4.391898 32.081524 22.227076
2009-07-09 07:12:05 51°16.42 2°57.183 19.4209 4.391691 32.079829 22.296724
2009-07-09 07:12:10 51°16.427 2°57.201 19.4193 4.391483 32.077537 22.331548
2009-07-09 07:12:14 51°16.433 2°57.216 19.4171 4.391275 32.075245 22.331548
2009-07-09 07:12:18 51°16.439 2°57.23 19.4194 4.391068 32.072953 22.2619
2009-07-09 07:12:24 51°16.448 2°57.252 19.4204 4.391068 32.072953 22.2619
2009-07-09 07:12:30 51°16.457 2°57.273 19.4201 4.390756 32.069814 22.2619
2009-07-09 07:12:35 51°16.465 2°57.291 19.4189 4.390549 32.066925 22.296724
2009-07-09 07:12:39 51°16.471 2°57.305 19.4212 4.390237 32.063786 22.470844
2009-07-09 07:12:44 51°16.479 2°57.324 19.4216 4.389614 32.058703 22.401196
2009-07-09 07:12:50 51°16.488 2°57.345 19.4187 4.389199 32.055315 22.43602
2009-07-09 07:12:54 51°16.494 2°57.36 19.4196 4.389199 32.055315 22.43602
2009-07-09 07:12:59 51°16.502 2°57.377 19.4219 4.38868 32.050482 22.505668
2009-07-09 07:13:04 51°16.509 2°57.396 19.4187 4.388161 32.046247 22.401196
2009-07-09 07:13:10 51°16.519 2°57.417 19.4187 4.387539 32.040568 22.470844
2009-07-09 07:13:14 51°16.525 2°57.431 19.4193 4.387123 32.037777 22.540492
2009-07-09 07:13:20 51°16.534 2°57.452 19.418 4.386501 32.032695 22.540492
2009-07-09 07:13:24 51°16.541 2°57.466 19.4172 4.386501 32.032695 22.540492
2009-07-09 07:13:30 51°16.55 2°57.488 19.4175 4.38567 32.025919 22.644964
2009-07-09 07:13:34 51°16.557 2°57.502 19.4206 4.385255 32.022531 22.714612
2009-07-09 07:13:39 51°16.564 2°57.521 19.4177 4.384632 32.016853 22.749436
2009-07-09 07:13:45 51°16.573 2°57.542 19.4192 4.383906 32.011521 22.888733
2009-07-09 07:13:50 51°16.581 2°57.56 19.4181 4.382453 32.000261 22.749436
2009-07-09 07:13:54 51°16.587 2°57.574 19.4183 4.382453 32.000261 22.749436
2009-07-09 07:13:59 51°16.594 2°57.591 19.4189 4.382764 32.002801 22.819085
2009-07-09 07:14:04 51°16.602 2°57.61 19.4222 4.381934 31.996026 22.714612
2009-07-09 07:14:10 51°16.611 2°57.63 19.4222 4.381518 31.992043 22.78426
2009-07-09 07:14:14 51°16.617 2°57.645 19.4182 4.38048 31.983575 22.853909
2009-07-09 07:14:19 51°16.625 2°57.663 19.4171 4.379027 31.972316 22.78426
2009-07-09 07:14:25 51°16.634 2°57.684 19.4153 4.379027 31.972316 22.78426
2009-07-09 07:14:30 51°16.641 2°57.702 19.4173 4.377263 31.957922 22.853909
2009-07-09 07:14:34 51°16.648 2°57.716 19.4196 4.376121 31.948608 22.819085
2009-07-09 07:14:38 51°16.654 2°57.73 19.4164 4.373734 31.928541 22.819085
2009-07-09 07:14:44 51°16.663 2°57.752 19.4171 4.372488 31.918383 22.819085
2009-07-09 07:14:50 51°16.672 2°57.773 19.4176 4.370412 31.902047 22.958381
2009-07-09 07:14:54 51°16.678 2°57.788 19.4164 4.370412 31.902047 22.958381
2009-07-09 07:15:00 51°16.687 2°57.809 19.4152 4.369893 31.897815 22.923557
2009-07-09 07:15:04 51°16.693 2°57.823 19.418 4.368544 31.887406 22.958381
2009-07-09 07:15:09 51°16.7 2°57.841 19.4154 4.367299 31.877249 22.853909
2009-07-09 07:15:15 51°16.71 2°57.862 19.4155 4.366157 31.867345 22.853909
2009-07-09 07:15:19 51°16.715 2°57.877 19.4196 4.365638 31.863707 22.993205
2009-07-09 07:15:25 51°16.723 2°57.899 19.4162 4.365638 31.863707 22.993205
2009-07-09 07:15:30 51°16.73 2°57.917 19.4156 4.363977 31.85076 23.028029
2009-07-09 07:15:34 51°16.736 2°57.932 19.4155 4.361486 31.83045 23.028029
2009-07-09 07:15:39 51°16.741 2°57.951 19.4161 4.358892 31.809297 23.028029
2009-07-09 07:15:45 51°16.75 2°57.973 19.4136 4.35941 31.81412 22.958381
2009-07-09 07:15:50 51°16.756 2°57.992 19.4126 4.357646 31.799736 22.853909
2009-07-09 07:15:54 51°16.761 2°58.007 19.4118 4.357646 31.799736 22.853909
2009-07-09 07:15:59 51°16.767 2°58.026 19.413 4.356608 31.790683 22.853909
2009-07-09 07:16:05 51°16.776 2°58.048 19.4148 4.35474 31.776047 22.923557
2009-07-09 07:16:10 51°16.781 2°58.068 19.4157 4.354013 31.770125 22.993205
2009-07-09 07:16:14 51°16.787 2°58.082 19.4144 4.352457 31.757436 22.993205
2009-07-09 07:16:19 51°16.793 2°58.101 19.4182 4.351938 31.753798 22.923557
2009-07-09 07:16:24 51°16.799 2°58.121 19.4164 4.351938 31.753798 22.923557
2009-07-09 07:16:30 51°16.807 2°58.142 19.4161 4.350485 31.743139 22.923557
2009-07-09 07:16:34 51°16.812 2°58.158 19.4207 4.350277 31.741447 22.958381
2009-07-09 07:16:39 51°16.818 2°58.176 19.4159 4.349758 31.737217 22.853909
2009-07-09 07:16:44 51°16.824 2°58.195 19.4171 4.349343 31.732652 22.853909
2009-07-09 07:16:50 51°16.833 2°58.216 19.4203 4.34789 31.720811 22.853909
2009-07-09 07:16:54 51°16.836 2°58.233 19.4209 4.34789 31.720811 22.853909
2009-07-09 07:16:58 51°16.842 2°58.247 19.4208 4.347578 31.717683 22.819085
2009-07-09 07:17:04 51°16.849 2°58.271 19.4236 4.347163 31.7143 22.714612
2009-07-09 07:17:10 51°16.857 2°58.293 19.4216 4.346022 31.704407 22.644964
2009-07-09 07:17:15 51°16.862 2°58.312 19.4215 4.345191 31.697641 22.575316
2009-07-09 07:17:19 51°16.867 2°58.327 19.4215 4.345814 31.701534 22.505668
2009-07-09 07:17:24 51°16.873 2°58.347 19.4233 4.345814 31.701534 22.505668
2009-07-09 07:17:30 51°16.881 2°58.37 19.4241 4.345295 31.696716 22.43602
2009-07-09 07:17:35 51°16.886 2°58.389 19.4216 4.343842 31.684288 22.43602
2009-07-09 07:17:39 51°16.891 2°58.405 19.4193 4.344153 31.686235 22.296724
2009-07-09 07:17:44 51°16.897 2°58.424 19.4213 4.344361 31.686745 22.331548
2009-07-09 07:17:50 51°16.905 2°58.447 19.4207 4.343738 31.681673 22.192252
2009-07-09 07:17:54 51°16.91 2°58.462 19.4219 4.343738 31.681673 22.192252
2009-07-09 07:18:00 51°16.917 2°58.485 19.4196 4.343323 31.678291 22.192252
2009-07-09 07:18:04 51°16.923 2°58.501 19.4219 4.343012 31.675754 22.157428
2009-07-09 07:18:10 51°16.93 2°58.523 19.421 4.342597 31.672962 22.087779
2009-07-09 07:18:14 51°16.935 2°58.539 19.4212 4.340832 31.65918 22.087779
2009-07-09 07:18:20 51°16.944 2°58.562 19.4216 4.341247 31.662561 22.122603
2009-07-09 07:18:25 51°16.949 2°58.581 19.4236 4.341247 31.662561 22.122603
2009-07-09 07:18:30 51°16.956 2°58.6 19.4181 4.341247 31.662561 22.087779
2009-07-09 07:18:34 51°16.96 2°58.615 19.421 4.340936 31.660025 21.983307
2009-07-09 07:18:39 51°16.967 2°58.635 19.4209 4.340728 31.658334 22.018131
2009-07-09 07:18:45 51°16.975 2°58.657 19.4177 4.34021 31.654697 21.948483
2009-07-09 07:18:50 51°16.981 2°58.677 19.4203 4.339483 31.648189 22.018131
2009-07-09 07:18:54 51°16.986 2°58.692 19.4179 4.339483 31.648189 22.018131
2009-07-09 07:18:59 51°16.992 2°58.712 19.4157 4.337304 31.629849 21.948483
2009-07-09 07:19:04 51°16.999 2°58.73 19.4137 4.338653 31.641427 21.913659
2009-07-09 07:19:10 51°17.006 2°58.754 19.4173 4.337511 31.632128 21.878835
2009-07-09 07:19:14 51°17.011 2°58.769 19.4121 4.336785 31.626211 21.809187
2009-07-09 07:19:19 51°17.017 2°58.788 19.4164 4.335747 31.617759 21.739539
2009-07-09 07:19:24 51°17.024 2°58.807 19.4151 4.335747 31.617759 21.739539
2009-07-09 07:19:30 51°17.031 2°58.83 19.4183 4.334813 31.61074 21.704715
2009-07-09 07:19:34 51°17.036 2°58.845 19.4131 4.333463 31.600341 21.669891
2009-07-09 07:19:40 51°17.044 2°58.868 19.411 4.332529 31.5945 21.565419
2009-07-09 07:19:44 51°17.049 2°58.883 19.4109 4.331699 31.587738 21.495771
2009-07-09 07:19:50 51°17.057 2°58.905 19.4099 4.330661 31.579874 21.495771
2009-07-09 07:19:55 51°17.064 2°58.923 19.4127 4.330661 31.579874 21.495771
2009-07-09 07:19:59 51°17.069 2°58.939 19.4106 4.330039 31.574215 21.460946
2009-07-09 07:20:05 51°17.077 2°58.961 19.409 4.329001 31.566352 21.460946
2009-07-09 07:20:10 51°17.083 2°58.98 19.4123 4.327859 31.557644 21.356474
2009-07-09 07:20:14 51°17.089 2°58.995 19.4095 4.326614 31.548678 21.32165
2009-07-09 07:20:19 51°17.095 2°59.014 19.415 4.325161 31.538022 21.217178
2009-07-09 07:20:25 51°17.103 2°59.036 19.4113 4.325161 31.538022 21.217178
2009-07-09 07:20:30 51°17.11 2°59.055 19.4136 4.324227 31.531004 21.217178
2009-07-09 07:20:34 51°17.116 2°59.07 19.4142 4.323397 31.524244 21.043058
2009-07-09 07:20:40 51°17.123 2°59.092 19.4119 4.322255 31.514949 20.97341
2009-07-09 07:20:45 51°17.13 2°59.111 19.4134 4.321217 31.5065 20.938586
2009-07-09 07:20:50 51°17.136 2°59.13 19.4164 4.320491 31.500585 20.938586
2009-07-09 07:20:54 51°17.142 2°59.145 19.414 4.320491 31.500585 20.938586
2009-07-09 07:20:59 51°17.149 2°59.163 19.4129 4.31966 31.493826 20.868938
2009-07-09 07:21:05 51°17.156 2°59.186 19.4172 4.318623 31.485377 20.834113
2009-07-09 07:21:10 51°17.163 2°59.205 19.413 4.317689 31.477187 20.903762
2009-07-09 07:21:15 51°17.169 2°59.224 19.4104 4.316858 31.470429 20.868938
2009-07-09 07:21:19 51°17.175 2°59.238 19.4123 4.316028 31.463671 20.868938
2009-07-09 07:21:24 51°17.181 2°59.258 19.4174 4.316028 31.463671 20.868938
2009-07-09 07:21:30 51°17.189 2°59.28 19.4142 4.315302 31.457758 20.729641
2009-07-09 07:21:34 51°17.194 2°59.295 19.4209 4.313952 31.446191 20.694817
2009-07-09 07:21:39 51°17.201 2°59.314 19.418 4.313226 31.440278 20.764465
2009-07-09 07:21:44 51°17.206 2°59.334 19.4215 4.312084 31.430988 20.694817
2009-07-09 07:21:50 51°17.215 2°59.356 19.4198 4.310839 31.420853 20.659993
2009-07-09 07:21:54 51°17.218 2°59.372 19.4215 4.310839 31.420853 20.659993
2009-07-09 07:22:00 51°17.227 2°59.393 19.4259 4.31032 31.416045 20.659993
2009-07-09 07:22:04 51°17.231 2°59.41 19.425 4.309801 31.411237 20.659993
2009-07-09 07:22:10 51°17.239 2°59.432 19.4198 4.30949 31.407534 20.555521
2009-07-09 07:22:15 51°17.244 2°59.452 19.4212 4.309386 31.40552 20.625169
2009-07-09 07:22:19 51°17.25 2°59.467 19.4236 4.308971 31.401558 20.555521
2009-07-09 07:22:25 51°17.257 2°59.49 19.422 4.308971 31.401558 20.555521
2009-07-09 07:22:30 51°17.264 2°59.51 19.421 4.308556 31.397011 20.485873
2009-07-09 07:22:34 51°17.268 2°59.525 19.4203 4.308244 31.393309 20.520697
2009-07-09 07:22:39 51°17.274 2°59.544 19.4217 4.307829 31.389348 20.520697
2009-07-09 07:22:44 51°17.28 2°59.564 19.4237 4.307103 31.383438 20.520697
2009-07-09 07:22:50 51°17.288 2°59.587 19.4236 4.306688 31.379477 20.520697
2009-07-09 07:22:54 51°17.293 2°59.602 19.4244 4.306688 31.379477 20.520697
2009-07-09 07:22:59 51°17.299 2°59.622 19.4254 4.306273 31.376684 20.451049
2009-07-09 07:23:05 51°17.307 2°59.644 19.4255 4.305858 31.373307 20.520697
2009-07-09 07:23:10 51°17.313 2°59.664 19.4276 4.305546 31.370775 20.451049
2009-07-09 07:23:14 51°17.318 2°59.679 19.4289 4.305546 31.370191 20.451049
2009-07-09 07:23:18 51°17.323 2°59.694 19.4291 4.305546 31.370191 20.381401
2009-07-09 07:23:25 51°17.332 2°59.721 19.4319 4.305546 31.370191 20.381401
2009-07-09 07:23:30 51°17.338 2°59.74 19.4327 4.304612 31.362593 20.346577
2009-07-09 07:23:35 51°17.345 2°59.759 19.4326 4.304716 31.362854 20.416225
2009-07-09 07:23:39 51°17.349 2°59.774 19.4345 4.304923 31.363958 20.451049
2009-07-09 07:23:45 51°17.357 2°59.797 19.436 4.304612 31.360842 20.381401
2009-07-09 07:23:50 51°17.364 2°59.816 19.439 4.305546 31.367855 20.520697
2009-07-09 07:23:54 51°17.369 2°59.831 19.4421 4.305546 31.367855 20.520697
2009-07-09 07:23:59 51°17.374 2°59.851 19.4477 4.30565 31.366947 20.520697
2009-07-09 07:24:05 51°17.382 2°59.873 19.4457 4.305235 31.362987 20.625169
2009-07-09 07:24:10 51°17.388 2°59.892 19.4509 4.305131 31.360976 20.555521
2009-07-09 07:24:15 51°17.395 2°59.91 19.4534 4.304923 31.357537 20.485873
2009-07-09 07:24:19 51°17.4 2°59.926 19.4549 4.305754 31.362537 20.694817
2009-07-09 07:24:25 51°17.408 2°59.949 19.4563 4.305754 31.362537 20.694817
2009-07-09 07:24:30 51°17.414 2°59.968 19.4592 4.305027 31.355463 20.764465
2009-07-09 07:24:34 51°17.419 2°59.983 19.4629 4.306065 31.361567 20.868938
2009-07-09 07:24:39 51°17.425 3°0.002 19.4634 4.306065 31.359816 20.834113
2009-07-09 07:24:44 51°17.431 3°0.021 19.4655 4.306272 31.358587 20.938586
2009-07-09 07:24:50 51°17.439 3°0.045 19.4678 4.306272 31.35742 21.008234
2009-07-09 07:24:54 51°17.443 3°0.06 19.4711 4.306272 31.35742 21.008234
2009-07-09 07:25:00 51°17.451 3°0.083 19.4698 4.30648 31.35619 21.043058
2009-07-09 07:25:04 51°17.455 3°0.099 19.4708 4.306584 31.355284 21.008234
2009-07-09 07:25:10 51°17.463 3°0.122 19.4685 4.306687 31.354378 21.043058
2009-07-09 07:25:14 51°17.468 3°0.137 19.4696 4.306687 31.352046 21.077882
2009-07-09 07:25:20 51°17.475 3°0.16 19.474 4.306687 31.349714 21.008234
2009-07-09 07:25:25 51°17.481 3°0.179 19.4768 4.306687 31.349714 21.008234
2009-07-09 07:25:30 51°17.488 3°0.198 19.4763 4.306791 31.348808 21.043058
2009-07-09 07:25:34 51°17.493 3°0.213 19.4796 4.306687 31.346799 21.182354
2009-07-09 07:25:39 51°17.499 3°0.232 19.4796 4.306272 31.343426 21.077882
2009-07-09 07:25:44 51°17.505 3°0.252 19.4813 4.305857 31.33947 21.077882
2009-07-09 07:25:50 51°17.512 3°0.275 19.4809 4.305546 31.335775 21.182354
2009-07-09 07:25:54 51°17.517 3°0.29 19.4826 4.305546 31.335775 21.182354
2009-07-09 07:25:58 51°17.522 3°0.306 19.4858 4.305338 31.332923 21.14753
2009-07-09 07:26:04 51°17.53 3°0.328 19.4845 4.305027 31.328647 21.14753
2009-07-09 07:26:10 51°17.537 3°0.351 19.4872 4.304715 31.324952 21.252002
2009-07-09 07:26:15 51°17.543 3°0.37 19.4869 4.304404 31.321259 21.391298
2009-07-09 07:26:19 51°17.548 3°0.386 19.4929 4.304196 31.318408 21.252002
2009-07-09 07:26:24 51°17.555 3°0.403 19.4926 4.304196 31.318408 21.252002
2009-07-09 07:26:30 51°17.561 3°0.427 19.4921 4.303885 31.314715 21.356474
2009-07-09 07:26:34 51°17.568 3°0.441 19.4919 4.303677 31.311865 21.391298
2009-07-09 07:26:39 51°17.573 3°0.46 19.4937 4.303574 31.309859 21.426122
2009-07-09 07:26:44 51°17.579 3°0.479 19.4935 4.303262 31.306748 21.565419
2009-07-09 07:26:50 51°17.587 3°0.502 19.4937 4.303055 31.303899 21.426122
2009-07-09 07:26:54 51°17.592 3°0.518 19.4962 4.303055 31.303899 21.426122
2009-07-09 07:27:00 51°17.599 3°0.54 19.4948 4.302951 31.301311 21.495771
2009-07-09 07:27:04 51°17.605 3°0.555 19.4966 4.302743 31.297881 21.565419
2009-07-09 07:27:10 51°17.613 3°0.577 19.4942 4.302224 31.293086 21.565419
2009-07-09 07:27:14 51°17.617 3°0.593 19.4934 4.301705 31.288291 21.460946
2009-07-09 07:27:20 51°17.626 3°0.614 19.4957 4.301187 31.283497 21.32165
2009-07-09 07:27:25 51°17.631 3°0.634 19.4965 4.301187 31.283497 21.32165
2009-07-09 07:27:30 51°17.639 3°0.652 19.497 4.300668 31.278702 21.32165
2009-07-09 07:27:34 51°17.644 3°0.667 19.4974 4.300253 31.274751 21.426122
2009-07-09 07:27:39 51°17.65 3°0.686 19.4976 4.299941 31.271643 21.356474
2009-07-09 07:27:45 51°17.658 3°0.708 19.4976 4.299319 31.266587 21.286826
2009-07-09 07:27:50 51°17.664 3°0.728 19.4975 4.2988 31.262375 21.252002
2009-07-09 07:27:54 51°17.669 3°0.743 19.4961 4.2988 31.262375 21.252002
2009-07-09 07:27:59 51°17.676 3°0.762 19.4934 4.298385 31.258424 21.182354
2009-07-09 07:28:04 51°17.682 3°0.781 19.4959 4.297969 31.255055 21.252002
2009-07-09 07:28:10 51°17.69 3°0.804 19.4978 4.297554 31.251685 21.077882
2009-07-09 07:28:14 51°17.695 3°0.819 19.4957 4.297035 31.247473 21.14753
2009-07-09 07:28:19 51°17.7 3°0.839 19.4967 4.29662 31.243523 21.043058
2009-07-09 07:28:24 51°17.708 3°0.858 19.4976 4.29662 31.243523 21.043058
2009-07-09 07:28:30 51°17.714 3°0.881 19.4941 4.296205 31.239573 21.043058
2009-07-09 07:28:34 51°17.719 3°0.897 19.4956 4.295583 31.235099 20.938586
2009-07-09 07:28:40 51°17.727 3°0.92 19.4991 4.295064 31.230887 20.868938
2009-07-09 07:28:44 51°17.731 3°0.936 19.5023 4.294752 31.228361 20.834113
2009-07-09 07:28:50 51°17.739 3°0.958 19.4973 4.294337 31.224411 20.799289
2009-07-09 07:28:55 51°17.744 3°0.978 19.4961 4.294337 31.224411 20.799289
2009-07-09 07:28:59 51°17.75 3°0.994 19.4969 4.29413 31.222727 20.834113
2009-07-09 07:29:05 51°17.757 3°1.017 19.4969 4.293507 31.218253 20.764465
2009-07-09 07:29:10 51°17.763 3°1.036 19.4985 4.293196 31.215726 20.799289
2009-07-09 07:29:14 51°17.768 3°1.052 19.5014 4.293196 31.214566 20.659993
2009-07-09 07:29:19 51°17.774 3°1.071 19.497 4.292988 31.212302 20.659993
2009-07-09 07:29:24 51°17.779 3°1.09 19.4979 4.292988 31.212302 20.659993
2009-07-09 07:29:30 51°17.787 3°1.113 19.4969 4.292469 31.208671 20.590345
2009-07-09 07:29:34 51°17.791 3°1.129 19.4974 4.292054 31.205302 20.625169
2009-07-09 07:29:40 51°17.799 3°1.152 19.4983 4.291743 31.202196 20.659993
2009-07-09 07:29:45 51°17.804 3°1.171 19.5014 4.291431 31.199669 20.659993
2009-07-09 07:29:50 51°17.81 3°1.191 19.5021 4.291224 31.197406 20.729641
2009-07-09 07:29:54 51°17.815 3°1.206 19.5011 4.291224 31.197406 20.729641
2009-07-09 07:29:58 51°17.82 3°1.221 19.4986 4.290809 31.194617 20.659993
2009-07-09 07:30:05 51°17.827 3°1.248 19.4979 4.29029 31.190406 20.694817
2009-07-09 07:30:10 51°17.833 3°1.268 19.5011 4.290082 31.188722 20.659993
2009-07-09 07:30:14 51°17.838 3°1.283 19.4986 4.289979 31.1873 20.834113
2009-07-09 07:30:19 51°17.843 3°1.303 19.4973 4.289771 31.185037 20.799289
2009-07-09 07:30:25 51°17.851 3°1.325 19.4991 4.289771 31.185037 20.799289
2009-07-09 07:30:30 51°17.856 3°1.344 19.4989 4.28946 31.182511 20.834113
2009-07-09 07:30:34 51°17.861 3°1.359 19.4969 4.289148 31.179985 20.799289
2009-07-09 07:30:39 51°17.867 3°1.378 19.4988 4.288941 31.178301 20.903762
2009-07-09 07:30:44 51°17.872 3°1.397 19.4963 4.288733 31.176616 20.834113
2009-07-09 07:30:50 51°17.879 3°1.419 19.4942 4.288422 31.174669 20.799289
2009-07-09 07:30:54 51°17.884 3°1.434 19.4945 4.288422 31.174669 20.799289
2009-07-09 07:31:00 51°17.891 3°1.456 19.4939 4.288214 31.172985 20.868938
2009-07-09 07:31:04 51°17.896 3°1.471 19.495 4.288007 31.171301 20.834113
2009-07-09 07:31:10 51°17.903 3°1.493 19.4932 4.287592 31.168512 20.799289
2009-07-09 07:31:15 51°17.909 3°1.512 19.4912 4.28728 31.165986 20.764465
2009-07-09 07:31:20 51°17.915 3°1.53 19.4885 4.286865 31.163197 20.659993
2009-07-09 07:31:25 51°17.921 3°1.548 19.4918 4.286865 31.163197 20.659993
2009-07-09 07:31:30 51°17.927 3°1.567 19.4872 4.28645 31.160408 20.555521
2009-07-09 07:31:35 51°17.934 3°1.585 19.4875 4.286139 31.15846 20.590345
2009-07-09 07:31:39 51°17.938 3°1.601 19.4861 4.285931 31.157355 20.520697
2009-07-09 07:31:45 51°17.945 3°1.623 19.4862 4.28562 31.154829 20.311753
2009-07-09 07:31:50 51°17.95 3°1.643 19.4838 4.285101 31.151776 20.102808
2009-07-09 07:31:54 51°17.956 3°1.658 19.4815 4.285101 31.151776 20.102808
2009-07-09 07:32:00 51°17.962 3°1.68 19.484 4.284582 31.148724 19.963512
2009-07-09 07:32:04 51°17.967 3°1.695 19.4838 4.284271 31.146776 19.754568
2009-07-09 07:32:10 51°17.975 3°1.717 19.482 4.28396 31.145407 19.68492
2009-07-09 07:32:14 51°17.98 3°1.732 19.4809 4.283545 31.142618 19.719744
2009-07-09 07:32:19 51°17.985 3°1.751 19.4772 4.283233 31.141249 19.406327
2009-07-09 07:32:25 51°17.993 3°1.773 19.4784 4.283233 31.141249 19.406327
2009-07-09 07:32:30 51°17.998 3°1.792 19.4759 4.282715 31.138195 19.301855
2009-07-09 07:32:34 51°18.004 3°1.806 19.4746 4.282403 31.136248 19.232207
2009-07-09 07:32:39 51°18.01 3°1.825 19.4775 4.282196 31.135142 19.127735
2009-07-09 07:32:44 51°18.015 3°1.844 19.4735 4.281884 31.133194 19.023263
2009-07-09 07:32:50 51°18.023 3°1.866 19.4709 4.281469 31.130982 18.988439
2009-07-09 07:32:54 51°18.027 3°1.881 19.4704 4.281469 31.130982 18.988439
2009-07-09 07:32:59 51°18.034 3°1.9 19.471 4.281158 31.129034 18.814318
2009-07-09 07:33:04 51°18.04 3°1.918 19.4725 4.280847 31.127086 18.779494
2009-07-09 07:33:10 51°18.047 3°1.941 19.4679 4.280432 31.124875 18.640198
2009-07-09 07:33:14 51°18.052 3°1.956 19.4674 4.280017 31.122084 18.500902
2009-07-09 07:33:20 51°18.058 3°1.978 19.4655 4.279602 31.120451 18.57055
2009-07-09 07:33:24 51°18.064 3°1.993 19.4661 4.279602 31.120451 18.57055
2009-07-09 07:33:30 51°18.07 3°2.016 19.4683 4.27929 31.119081 18.535726
2009-07-09 07:33:35 51°18.075 3°2.035 19.4675 4.279083 31.117975 18.466078
2009-07-09 07:33:39 51°18.08 3°2.05 19.4619 4.278875 31.116869 18.431254
2009-07-09 07:33:45 51°18.087 3°2.073 19.4673 4.27846 31.114078 18.326782
2009-07-09 07:33:50 51°18.093 3°2.092 19.4645 4.278149 31.112708 18.326782
2009-07-09 07:33:54 51°18.098 3°2.107 19.4584 4.278149 31.112708 18.326782
2009-07-09 07:34:00 51°18.104 3°2.13 19.4604 4.277734 31.109917 18.361606
2009-07-09 07:34:04 51°18.11 3°2.145 19.4581 4.27763 31.109653 18.257134
2009-07-09 07:34:10 51°18.117 3°2.167 19.4612 4.277422 31.107969 18.257134
2009-07-09 07:34:14 51°18.121 3°2.183 19.4588 4.277111 31.106599 18.257134
2009-07-09 07:34:20 51°18.128 3°2.206 19.4525 4.276904 31.104914 18.222309
2009-07-09 07:34:25 51°18.134 3°2.225 19.4544 4.276904 31.104914 18.222309
2009-07-09 07:34:30 51°18.139 3°2.244 19.457 4.276488 31.102123 18.117837
2009-07-09 07:34:34 51°18.144 3°2.259 19.4509 4.276073 31.09991 18.083013
2009-07-09 07:34:39 51°18.15 3°2.279 19.4489 4.275658 31.097697 18.117837
2009-07-09 07:34:45 51°18.157 3°2.302 19.4492 4.275451 31.097169 18.013365
2009-07-09 07:34:50 51°18.162 3°2.321 19.4524 4.275036 31.094378 17.943717
2009-07-09 07:34:54 51°18.167 3°2.336 19.4496 4.275036 31.094378 17.943717
2009-07-09 07:34:59 51°18.173 3°2.355 19.4485 4.274621 31.092743 17.908893
2009-07-09 07:35:04 51°18.178 3°2.374 19.4447 4.274309 31.090794 17.908893
2009-07-09 07:35:10 51°18.185 3°2.397 19.4452 4.273791 31.087738 17.839245
2009-07-09 07:35:14 51°18.19 3°2.412 19.4426 4.273479 31.085789 17.804421
2009-07-09 07:35:19 51°18.196 3°2.431 19.4435 4.273168 31.08384 17.699949
2009-07-09 07:35:24 51°18.202 3°2.449 19.4409 4.273168 31.08384 17.699949
2009-07-09 07:35:30 51°18.21 3°2.472 19.4404 4.27296 31.082733 17.665125
2009-07-09 07:35:34 51°18.214 3°2.488 19.442 4.272753 31.081626 17.630301
2009-07-09 07:35:40 51°18.221 3°2.51 19.439 4.272234 31.079148 17.630301
2009-07-09 07:35:44 51°18.225 3°2.526 19.4359 4.271715 31.076091 17.630301
2009-07-09 07:35:50 51°18.233 3°2.548 19.436 4.271196 31.073613 17.525828
2009-07-09 07:35:55 51°18.238 3°2.567 19.4346 4.271196 31.073613 17.525828
2009-07-09 07:36:00 51°18.244 3°2.586 19.4319 4.270781 31.071399 17.525828
2009-07-09 07:36:05 51°18.25 3°2.604 19.432 4.270366 31.069185 17.525828
2009-07-09 07:36:10 51°18.256 3°2.624 19.4297 4.270159 31.068077 17.525828
2009-07-09 07:36:14 51°18.261 3°2.638 19.4278 4.269951 31.06697 17.45618
2009-07-09 07:36:19 51°18.267 3°2.657 19.4323 4.269536 31.064178 17.421356
2009-07-09 07:36:25 51°18.274 3°2.68 19.4292 4.269536 31.064178 17.421356
2009-07-09 07:36:30 51°18.281 3°2.697 19.4285 4.269121 31.062541 17.421356
2009-07-09 07:36:34 51°18.285 3°2.713 19.4304 4.268706 31.060327 17.351708
2009-07-09 07:36:40 51°18.293 3°2.736 19.4285 4.268291 31.058112 17.247236
2009-07-09 07:36:44 51°18.297 3°2.752 19.4351 4.267876 31.055319 17.212412
2009-07-09 07:36:50 51°18.305 3°2.774 19.4294 4.267461 31.053104 17.316884
2009-07-09 07:36:54 51°18.31 3°2.79 19.423 4.267461 31.053104 17.316884
2009-07-09 07:36:59 51°18.315 3°2.809 19.4243 4.267357 31.052262 17.212412
2009-07-09 07:37:05 51°18.323 3°2.832 19.4275 4.267046 31.050889 17.177588
2009-07-09 07:37:10 51°18.329 3°2.85 19.4243 4.267046 31.050311 17.142764
2009-07-09 07:37:14 51°18.334 3°2.865 19.4256 4.266942 31.049469 17.177588
2009-07-09 07:37:19 51°18.34 3°2.88 19.42 4.266734 31.047783 17.073116
2009-07-09 07:37:25 51°18.345 3°2.898 19.4249 4.266734 31.047783 17.073116
2009-07-09 07:37:30 51°18.351 3°2.91 19.419 4.266216 31.044726 17.038292
2009-07-09 07:37:35 51°18.356 3°2.921 19.4176 4.265904 31.043931 17.073116
2009-07-09 07:37:39 51°18.36 3°2.929 19.4186 4.265801 31.043088 17.003468
2009-07-09 07:37:45 51°18.365 3°2.939 19.4152 4.265593 31.041403 17.073116
2009-07-09 07:37:50 51°18.37 3°2.945 19.4159 4.265386 31.040295 16.968644
2009-07-09 07:37:54 51°18.373 3°2.95 19.4173 4.265386 31.040295 16.968644
2009-07-09 07:38:00 51°18.378 3°2.955 19.4154 4.265178 31.038609 16.933819
2009-07-09 07:38:05 51°18.382 3°2.959 19.4159 4.264763 31.036972 16.968644
2009-07-09 07:38:10 51°18.386 3°2.961 19.414 4.264555 31.036441 16.864171
2009-07-09 07:38:14 51°18.389 3°2.963 19.4154 4.26414 31.034803 16.759699
2009-07-09 07:38:19 51°18.393 3°2.965 19.4153 4.263725 31.032588 16.829347
2009-07-09 07:38:25 51°18.397 3°2.966 19.4154 4.263725 31.032588 16.829347
2009-07-09 07:38:30 51°18.4 3°2.967 19.4138 4.263518 31.030902 16.794523
2009-07-09 07:38:34 51°18.402 3°2.967 19.4166 4.263414 31.030637 16.759699
2009-07-09 07:38:40 51°18.406 3°2.969 19.4136 4.26331 31.030372 16.690051
2009-07-09 07:38:45 51°18.409 3°2.969 19.413 4.263103 31.029264 16.690051
2009-07-09 07:38:50 51°18.411 3°2.97 19.4149 4.262895 31.028155 16.655227
2009-07-09 07:38:54 51°18.413 3°2.97 19.4133 4.262895 31.028155 16.655227
2009-07-09 07:38:59 51°18.415 3°2.972 19.4134 4.262791 31.027313 16.620403
2009-07-09 07:39:05 51°18.418 3°2.972 19.4172 4.262791 31.027313 16.620403
2009-07-09 07:39:10 51°18.42 3°2.974 19.4135 4.262688 31.027047 16.585579
2009-07-09 07:39:14 51°18.421 3°2.974 19.4145 4.262584 31.025627 16.620403
2009-07-09 07:39:19 51°18.423 3°2.976 19.4168 4.26248 31.024784 16.515931
2009-07-09 07:39:25 51°18.425 3°2.978 19.4136 4.26248 31.024784 16.515931
2009-07-09 07:39:30 51°18.426 3°2.981 19.4169 4.262376 31.023941 16.481107
2009-07-09 07:39:35 51°18.427 3°2.983 19.4168 4.262273 31.023098 16.515931
2009-07-09 07:39:39 51°18.428 3°2.985 19.4153 4.262273 31.023098 16.446283
2009-07-09 07:39:44 51°18.429 3°2.988 19.4117 4.262065 31.021413 16.411459
2009-07-09 07:39:50 51°18.429 3°2.992 19.4123 4.261961 31.021148 16.446283
2009-07-09 07:39:55 51°18.429 3°2.994 19.4118 4.261961 31.021148 16.446283
2009-07-09 07:39:59 51°18.428 3°2.997 19.4095 4.261858 31.020305 16.446283
2009-07-09 07:40:04 51°18.428 3°3 19.4069 4.261961 31.02057 16.376635
2009-07-09 07:40:10 51°18.427 3°3.003 19.4058 4.261858 31.019727 16.341811
2009-07-09 07:40:14 51°18.427 3°3.005 19.4082 4.261546 31.017199 16.272162
2009-07-09 07:40:20 51°18.425 3°3.008 19.4075 4.261235 31.015248 16.202514
2009-07-09 07:40:24 51°18.424 3°3.01 19.4077 4.261235 31.015248 16.202514
2009-07-09 07:40:30 51°18.423 3°3.012 19.4071 4.26082 31.012454 16.16769
2009-07-09 07:40:34 51°18.421 3°3.013 19.4071 4.260301 31.009972 16.132866
2009-07-09 07:40:40 51°18.42 3°3.015 19.4041 4.25999 31.008021 16.132866
2009-07-09 07:40:45 51°18.418 3°3.016 19.4082 4.259678 31.006069 16.16769
2009-07-09 07:40:50 51°18.417 3°3.018 19.4082 4.259575 31.005227 16.098042
2009-07-09 07:40:54 51°18.415 3°3.018 19.409 4.259575 31.005227 16.098042
2009-07-09 07:40:59 51°18.415 3°3.019 19.4074 4.259367 31.003541 16.098042
2009-07-09 07:41:05 51°18.413 3°3.02 19.411 4.25916 31.001855 16.063218
2009-07-09 07:41:10 51°18.411 3°3.021 19.4101 4.258952 31.000747 15.99357
2009-07-09 07:41:14 51°18.41 3°3.021 19.4081 4.258745 30.999638 15.99357
2009-07-09 07:41:19 51°18.409 3°3.021 19.4073 4.258641 30.998218 15.958746
2009-07-09 07:41:24 51°18.407 3°3.021 19.4079 4.258641 30.998218 15.958746
2009-07-09 07:41:30 51°18.405 3°3.021 19.4056 4.258537 30.997953 15.958746
2009-07-09 07:41:34 51°18.404 3°3.021 19.4051 4.258433 30.996533 15.923922
2009-07-09 07:41:39 51°18.403 3°3.022 19.4059 4.258537 30.997375 15.958746
2009-07-09 07:41:45 51°18.401 3°3.021 19.4059 4.258537 30.996798 15.923922
2009-07-09 07:41:50 51°18.4 3°3.021 19.405 4.258537 30.997375 15.923922
2009-07-09 07:41:54 51°18.399 3°3.021 19.4048 4.258537 30.997375 15.923922
2009-07-09 07:42:00 51°18.398 3°3.021 19.409 4.258433 30.996533 15.923922
2009-07-09 07:42:04 51°18.397 3°3.021 19.4051 4.25833 30.996267 15.923922
2009-07-09 07:42:10 51°18.396 3°3.02 19.4048 4.258226 30.995424 15.923922
2009-07-09 07:42:14 51°18.395 3°3.02 19.4102 4.258226 30.996001 15.854274
2009-07-09 07:42:19 51°18.395 3°3.02 19.4106 4.258018 30.994316 15.889098
2009-07-09 07:42:25 51°18.393 3°3.019 19.4104 4.258018 30.994316 15.889098
2009-07-09 07:42:30 51°18.392 3°3.018 19.4105 4.257914 30.993473 15.854274
2009-07-09 07:42:35 51°18.391 3°3.018 19.4117 4.257914 30.992896 15.854274
2009-07-09 07:42:39 51°18.39 3°3.017 19.4115 4.257914 30.992896 15.81945
2009-07-09 07:42:45 51°18.389 3°3.016 19.4087 4.257811 30.992053 15.854274
2009-07-09 07:42:50 51°18.388 3°3.015 19.4113 4.257914 30.992319 15.81945
2009-07-09 07:42:55 51°18.387 3°3.014 19.4128 4.257914 30.992319 15.81945
2009-07-09 07:43:00 51°18.387 3°3.014 19.4082 4.258018 30.992584 15.784626
2009-07-09 07:43:05 51°18.385 3°3.013 19.4082 4.258122 30.993427 15.784626
2009-07-09 07:43:10 51°18.385 3°3.012 19.4103 4.258226 30.993116 15.784626
2009-07-09 07:43:14 51°18.383 3°3.011 19.4092 4.258226 30.992539 15.714978
2009-07-09 07:43:19 51°18.383 3°3.01 19.4086 4.258018 30.99143 15.714978
2009-07-09 07:43:25 51°18.381 3°3.009 19.4103 4.258018 30.99143 15.714978
2009-07-09 07:43:30 51°18.381 3°3.008 19.4069 4.258018 30.990853 15.714978
2009-07-09 07:43:34 51°18.38 3°3.007 19.4157 4.257914 30.990011 15.680154
2009-07-09 07:43:40 51°18.379 3°3.006 19.412 4.257707 30.989479 15.645329
2009-07-09 07:43:45 51°18.378 3°3.005 19.4093 4.257603 30.988636 15.610505
2009-07-09 07:43:50 51°18.377 3°3.004 19.411 4.257499 30.987793 15.575681
2009-07-09 07:43:54 51°18.376 3°3.003 19.4128 4.257499 30.987793 15.575681
2009-07-09 07:43:59 51°18.375 3°3.002 19.4144 4.257396 30.986951 15.575681
2009-07-09 07:44:05 51°18.374 3°3 19.4115 4.257292 30.986108 15.575681
2009-07-09 07:44:10 51°18.373 3°2.999 19.4106 4.257396 30.986374 15.506033
2009-07-09 07:44:14 51°18.372 3°2.998 19.4048 4.257396 30.985797 15.506033
2009-07-09 07:44:20 51°18.371 3°2.996 19.4086 4.257396 30.985797 15.471209
2009-07-09 07:44:24 51°18.37 3°2.995 19.4067 4.257396 30.985797 15.471209
2009-07-09 07:44:30 51°18.369 3°2.994 19.4059 4.257396 30.984643 15.471209
2009-07-09 07:44:35 51°18.368 3°2.992 19.4083 4.257396 30.984643 15.401561
2009-07-09 07:44:39 51°18.368 3°2.991 19.4077 4.257084 30.982692 15.401561
2009-07-09 07:44:45 51°18.367 3°2.989 19.4143 4.256877 30.98216 15.331913
2009-07-09 07:44:50 51°18.366 3°2.988 19.4175 4.256565 30.980209 15.331913
2009-07-09 07:44:55 51°18.365 3°2.986 19.4153 4.256565 30.980209 15.331913
2009-07-09 07:44:59 51°18.365 3°2.986 19.418 4.256358 30.9791 15.331913
2009-07-09 07:45:05 51°18.363 3°2.984 19.4162 4.256358 30.9791 15.297089
2009-07-09 07:45:10 51°18.363 3°2.982 19.4127 4.256358 30.9791 15.297089
2009-07-09 07:45:14 51°18.362 3°2.981 19.4152 4.256358 30.9791 15.297089
2009-07-09 07:45:20 51°18.361 3°2.979 19.4067 4.256669 30.979898 15.227441
2009-07-09 07:45:25 51°18.36 3°2.977 19.4038 4.256669 30.979898 15.227441
2009-07-09 07:45:30 51°18.36 3°2.976 19.4052 4.257084 30.981538 15.227441
2009-07-09 07:45:34 51°18.359 3°2.975 19.4082 4.257292 30.981493 15.262265
2009-07-09 07:45:39 51°18.358 3°2.973 19.4044 4.25698 30.979542 15.192617
2009-07-09 07:45:45 51°18.357 3°2.971 19.4084 4.256773 30.978434 15.157793
2009-07-09 07:45:50 51°18.357 3°2.969 19.4036 4.256565 30.977325 15.157793
2009-07-09 07:45:54 51°18.356 3°2.968 19.4082 4.256565 30.977325 15.157793
2009-07-09 07:45:59 51°18.355 3°2.966 19.4094 4.25615 30.976261 15.157793
2009-07-09 07:46:05 51°18.354 3°2.964 19.4038 4.255839 30.975463 15.122969
2009-07-09 07:46:10 51°18.353 3°2.963 19.4019 4.255632 30.974354 15.088145
2009-07-09 07:46:14 51°18.352 3°2.961 19.4043 4.255528 30.973512 15.122969
2009-07-09 07:46:19 51°18.352 3°2.959 19.4042 4.255424 30.972669 15.122969
2009-07-09 07:46:25 51°18.351 3°2.957 19.4075 4.255424 30.972669 15.122969
2009-07-09 07:46:30 51°18.35 3°2.955 19.4062 4.25532 30.971826 15.122969
2009-07-09 07:46:34 51°18.349 3°2.954 19.4075 4.25532 30.971249 15.122969
2009-07-09 07:46:39 51°18.348 3°2.952 19.4067 4.255113 30.970717 15.088145
2009-07-09 07:46:44 51°18.347 3°2.95 19.4044 4.254905 30.970185 15.088145
2009-07-09 07:46:50 51°18.346 3°2.948 19.4031 4.254905 30.970185 15.088145
2009-07-09 07:46:54 51°18.346 3°2.947 19.4031 4.254905 30.970185 15.088145
2009-07-09 07:47:00 51°18.345 3°2.945 19.4012 4.255009 30.969875 15.088145
2009-07-09 07:47:04 51°18.344 3°2.943 19.4023 4.255009 30.970451 15.088145
2009-07-09 07:47:10 51°18.344 3°2.941 19.4046 4.254905 30.969032 15.053321
2009-07-09 07:47:15 51°18.342 3°2.939 19.405 4.254905 30.969032 15.053321
2009-07-09 07:47:20 51°18.342 3°2.937 19.3998 4.254698 30.967923 15.053321
2009-07-09 07:47:25 51°18.341 3°2.935 19.4021 4.254698 30.967923 15.053321
2009-07-09 07:47:30 51°18.34 3°2.933 19.4016 4.254594 30.967657 15.053321
2009-07-09 07:47:34 51°18.339 3°2.932 19.4025 4.254386 30.966548 15.018497
2009-07-09 07:47:40 51°18.338 3°2.929 19.4034 4.254386 30.966548 15.088145
2009-07-09 07:47:45 51°18.338 3°2.928 19.4035 4.254283 30.965705 15.018497
2009-07-09 07:47:50 51°18.337 3°2.925 19.4042 4.254179 30.965439 14.983672
2009-07-09 07:47:54 51°18.336 3°2.924 19.4005 4.254179 30.965439 14.983672
2009-07-09 07:47:59 51°18.335 3°2.922 19.4026 4.254075 30.965173 14.983672
2009-07-09 07:48:04 51°18.335 3°2.92 19.4012 4.253971 30.963754 14.983672
2009-07-09 07:48:10 51°18.333 3°2.917 19.4026 4.253971 30.96433 14.948848
2009-07-09 07:48:14 51°18.333 3°2.916 19.3996 4.254075 30.964596 14.948848
2009-07-09 07:48:19 51°18.332 3°2.914 19.3998 4.253971 30.963754 14.914024
2009-07-09 07:48:25 51°18.331 3°2.911 19.4077 4.253971 30.963754 14.914024
2009-07-09 07:48:30 51°18.33 3°2.909 19.4011 4.253868 30.962911 14.948848
2009-07-09 07:48:34 51°18.33 3°2.908 19.4005 4.253764 30.962645 14.914024
2009-07-09 07:48:39 51°18.329 3°2.905 19.4082 4.25366 30.962378 14.948848
2009-07-09 07:48:44 51°18.328 3°2.903 19.401 4.25366 30.962378 14.948848
2009-07-09 07:48:50 51°18.327 3°2.901 19.4034 4.253556 30.961536 14.914024
2009-07-09 07:48:54 51°18.326 3°2.899 19.4023 4.253556 30.961536 14.914024
2009-07-09 07:48:59 51°18.325 3°2.897 19.4003 4.25366 30.962378 14.914024
2009-07-09 07:49:04 51°18.324 3°2.895 19.4046 4.253556 30.961536 14.914024
2009-07-09 07:49:10 51°18.323 3°2.892 19.4055 4.253453 30.960693 14.8792
2009-07-09 07:49:14 51°18.323 3°2.891 19.4032 4.253556 30.961536 14.8792
2009-07-09 07:49:20 51°18.321 3°2.888 19.4047 4.253556 30.960959 14.8792
2009-07-09 07:49:24 51°18.321 3°2.887 19.4007 4.253556 30.960959 14.8792
2009-07-09 07:49:30 51°18.32 3°2.884 19.403 4.253453 30.960693 14.914024
2009-07-09 07:49:35 51°18.32 3°2.882 19.4035 4.253453 30.960116 14.8792
2009-07-09 07:49:40 51°18.318 3°2.88 19.4039 4.253453 30.960116 14.8792
2009-07-09 07:49:45 51°18.318 3°2.878 19.4024 4.25366 30.960649 14.844376
2009-07-09 07:49:50 51°18.317 3°2.876 19.4019 4.25366 30.960649 14.8792
2009-07-09 07:49:55 51°18.316 3°2.874 19.404 4.25366 30.960649 14.8792
2009-07-09 07:49:59 51°18.315 3°2.872 19.3999 4.253556 30.960383 14.8792
2009-07-09 07:50:05 51°18.314 3°2.87 19.4017 4.253556 30.960383 14.844376
2009-07-09 07:50:10 51°18.314 3°2.867 19.4001 4.253556 30.959806 14.844376
2009-07-09 07:50:14 51°18.313 3°2.865 19.4012 4.253556 30.959806 14.8792
2009-07-09 07:50:20 51°18.312 3°2.863 19.4063 4.253556 30.959806 14.844376
2009-07-09 07:50:25 51°18.311 3°2.861 19.4044 4.253556 30.959806 14.844376
2009-07-09 07:50:30 51°18.31 3°2.859 19.404 4.253452 30.958963 14.844376
2009-07-09 07:50:34 51°18.309 3°2.857 19.4004 4.253245 30.958431 14.844376
2009-07-09 07:50:39 51°18.309 3°2.855 19.3983 4.253141 30.958165 14.844376
2009-07-09 07:50:45 51°18.307 3°2.853 19.4005 4.253037 30.957322 14.844376
2009-07-09 07:50:50 51°18.306 3°2.85 19.4009 4.253141 30.957588 14.809552
2009-07-09 07:50:54 51°18.306 3°2.849 19.3991 4.253141 30.957588 14.809552
2009-07-09 07:51:00 51°18.305 3°2.846 19.3984 4.253349 30.958121 14.809552
2009-07-09 07:51:05 51°18.304 3°2.844 19.3977 4.253349 30.958121 14.809552
2009-07-09 07:51:10 51°18.303 3°2.842 19.3999 4.253141 30.957588 14.809552
2009-07-09 07:51:15 51°18.302 3°2.84 19.3969 4.253037 30.957322 14.774728
2009-07-09 07:51:19 51°18.302 3°2.838 19.3966 4.252934 30.956479 14.809552
2009-07-09 07:51:25 51°18.301 3°2.835 19.3988 4.252934 30.956479 14.809552
2009-07-09 07:51:30 51°18.3 3°2.833 19.3947 4.25283 30.956213 14.774728
2009-07-09 07:51:34 51°18.3 3°2.832 19.3992 4.25283 30.956789 14.774728
2009-07-09 07:51:40 51°18.298 3°2.829 19.3984 4.252726 30.955946 14.774728
2009-07-09 07:51:45 51°18.297 3°2.827 19.4006 4.252622 30.95568 14.739904
2009-07-09 07:51:50 51°18.297 3°2.825 19.3989 4.252519 30.955414 14.739904
2009-07-09 07:51:54 51°18.296 3°2.824 19.3966 4.252519 30.955414 14.739904
2009-07-09 07:51:59 51°18.295 3°2.822 19.3957 4.252415 30.955148 14.739904
2009-07-09 07:52:05 51°18.294 3°2.819 19.3966 4.252311 30.954305 14.70508
2009-07-09 07:52:10 51°18.294 3°2.817 19.396 4.252415 30.955148 14.739904
2009-07-09 07:52:14 51°18.293 3°2.815 19.395 4.252415 30.954571 14.70508
2009-07-09 07:52:20 51°18.292 3°2.813 19.3955 4.252415 30.953995 14.670256
2009-07-09 07:52:24 51°18.291 3°2.811 19.3966 4.252415 30.953995 14.670256
2009-07-09 07:52:30 51°18.29 3°2.809 19.3955 4.252415 30.954571 14.739904
2009-07-09 07:52:34 51°18.29 3°2.807 19.3968 4.252311 30.953728 14.70508
2009-07-09 07:52:38 51°18.289 3°2.805 19.396 4.252311 30.954305 14.70508
2009-07-09 07:52:45 51°18.288 3°2.803 19.3977 4.252207 30.953462 14.670256
2009-07-09 07:52:50 51°18.287 3°2.801 19.3981 4.252104 30.953196 14.70508
2009-07-09 07:52:54 51°18.286 3°2.799 19.3963 4.252104 30.953196 14.70508
2009-07-09 07:53:00 51°18.285 3°2.797 19.3978 4.252104 30.952619 14.635432
2009-07-09 07:53:05 51°18.285 3°2.795 19.4006 4.252 30.952353 14.635432
2009-07-09 07:53:10 51°18.284 3°2.793 19.3966 4.252 30.952353 14.635432
2009-07-09 07:53:15 51°18.283 3°2.791 19.3967 4.252104 30.952619 14.635432
2009-07-09 07:53:19 51°18.282 3°2.79 19.3967 4.252104 30.952619 14.600608
2009-07-09 07:53:24 51°18.281 3°2.787 19.3972 4.252104 30.952619 14.600608
2009-07-09 07:53:30 51°18.281 3°2.785 19.3987 4.252104 30.952619 14.600608
2009-07-09 07:53:35 51°18.28 3°2.783 19.4005 4.252207 30.952885 14.600608
2009-07-09 07:53:39 51°18.279 3°2.782 19.399 4.252207 30.952885 14.600608
2009-07-09 07:53:44 51°18.278 3°2.779 19.3975 4.252104 30.952619 14.635432
2009-07-09 07:53:50 51°18.277 3°2.777 19.3975 4.252104 30.952619 14.565784
2009-07-09 07:53:54 51°18.276 3°2.775 19.3955 4.252104 30.952619 14.565784
2009-07-09 07:54:00 51°18.275 3°2.773 19.3982 4.252 30.951776 14.565784
2009-07-09 07:54:04 51°18.274 3°2.771 19.397 4.252104 30.952619 14.565784
2009-07-09 07:54:10 51°18.274 3°2.769 19.3969 4.252207 30.951733 14.565784
2009-07-09 07:54:15 51°18.273 3°2.767 19.3983 4.252311 30.952575 14.53096
2009-07-09 07:54:20 51°18.272 3°2.765 19.3979 4.252207 30.951733 14.53096
2009-07-09 07:54:25 51°18.271 3°2.763 19.3998 4.252207 30.951733 14.53096
2009-07-09 07:54:30 51°18.27 3°2.761 19.3959 4.251273 30.9453 14.53096
2009-07-09 07:54:34 51°18.269 3°2.759 19.3985 4.252 30.951776 14.53096
2009-07-09 07:54:40 51°18.269 3°2.757 19.3992 4.251896 30.95151 14.53096
2009-07-09 07:54:45 51°18.268 3°2.755 19.3983 4.252 30.951776 14.496136
2009-07-09 07:54:50 51°18.267 3°2.753 19.3972 4.252 30.951776 14.53096
2009-07-09 07:54:54 51°18.267 3°2.752 19.3958 4.252 30.951776 14.53096
2009-07-09 07:55:00 51°18.266 3°2.749 19.3965 4.252 30.951776 14.496136
2009-07-09 07:55:04 51°18.265 3°2.748 19.3958 4.251896 30.950933 14.461312
2009-07-09 07:55:10 51°18.264 3°2.745 19.3953 4.251896 30.950933 14.461312
2009-07-09 07:55:14 51°18.264 3°2.744 19.3953 4.252 30.9512 14.53096
2009-07-09 07:55:20 51°18.262 3°2.742 19.3955 4.252 30.9512 14.53096
2009-07-09 07:55:25 51°18.262 3°2.739 19.3978 4.252 30.9512 14.53096
2009-07-09 07:55:30 51°18.261 3°2.738 19.3992 4.251896 30.950933 14.461312
2009-07-09 07:55:34 51°18.26 3°2.736 19.3982 4.251792 30.950091 14.496136
2009-07-09 07:55:40 51°18.26 3°2.734 19.3963 4.251792 30.950667 14.496136
2009-07-09 07:55:44 51°18.259 3°2.732 19.3964 4.251792 30.950667 14.496136
2009-07-09 07:55:50 51°18.258 3°2.73 19.3974 4.251792 30.950667 14.496136
2009-07-09 07:55:55 51°18.257 3°2.728 19.398 4.251792 30.950667 14.496136
2009-07-09 07:56:00 51°18.256 3°2.726 19.3991 4.251792 30.950667 14.496136
2009-07-09 07:56:05 51°18.256 3°2.724 19.3993 4.251792 30.950091 14.53096
2009-07-09 07:56:10 51°18.255 3°2.722 19.3971 4.251792 30.950091 14.496136
2009-07-09 07:56:15 51°18.254 3°2.72 19.3972 4.251689 30.949824 14.496136
2009-07-09 07:56:19 51°18.253 3°2.718 19.3991 4.251689 30.949824 14.461312
2009-07-09 07:56:25 51°18.252 3°2.716 19.3971 4.251689 30.949824 14.461312
2009-07-09 07:56:30 51°18.252 3°2.714 19.3989 4.251689 30.949248 14.461312
2009-07-09 07:56:35 51°18.251 3°2.712 19.3982 4.251792 30.950091 14.461312
2009-07-09 07:56:40 51°18.25 3°2.71 19.3963 4.251792 30.949514 14.426488
2009-07-09 07:56:45 51°18.249 3°2.708 19.4002 4.251792 30.950091 14.426488
2009-07-09 07:56:50 51°18.248 3°2.706 19.4004 4.251689 30.949248 14.426488
2009-07-09 07:56:54 51°18.248 3°2.704 19.3966 4.251689 30.949248 14.426488
2009-07-09 07:57:00 51°18.246 3°2.702 19.3982 4.251689 30.948671 14.391664
2009-07-09 07:57:05 51°18.246 3°2.7 19.3994 4.251689 30.948671 14.391664
2009-07-09 07:57:10 51°18.245 3°2.698 19.3982 4.251792 30.949514 14.391664
2009-07-09 07:57:14 51°18.244 3°2.696 19.3974 4.251792 30.949514 14.426488
2009-07-09 07:57:19 51°18.244 3°2.694 19.3983 4.251896 30.949781 14.391664
2009-07-09 07:57:24 51°18.243 3°2.692 19.4038 4.251896 30.949781 14.391664
2009-07-09 07:57:30 51°18.242 3°2.69 19.4013 4.251792 30.949514 14.426488
2009-07-09 07:57:34 51°18.241 3°2.688 19.3997 4.251792 30.950091 14.356839
2009-07-09 07:57:40 51°18.24 3°2.686 19.4011 4.251792 30.950091 14.356839
2009-07-09 07:57:45 51°18.24 3°2.684 19.3965 4.251689 30.948671 14.391664
2009-07-09 07:57:50 51°18.239 3°2.682 19.3997 4.251689 30.948671 14.391664
2009-07-09 07:57:54 51°18.238 3°2.68 19.4 4.251689 30.948671 14.391664
2009-07-09 07:58:00 51°18.237 3°2.678 19.3994 4.251896 30.949781 14.391664
2009-07-09 07:58:04 51°18.237 3°2.676 19.3982 4.251896 30.948628 14.356839
2009-07-09 07:58:10 51°18.236 3°2.674 19.3991 4.251896 30.948628 14.356839
2009-07-09 07:58:15 51°18.235 3°2.672 19.4018 4.251896 30.948628 14.391664
2009-07-09 07:58:19 51°18.235 3°2.67 19.3973 4.251896 30.949781 14.391664
2009-07-09 07:58:25 51°18.233 3°2.667 19.4011 4.251896 30.949781 14.391664
2009-07-09 07:58:30 51°18.233 3°2.666 19.4008 4.251896 30.949781 14.356839
2009-07-09 07:58:34 51°18.232 3°2.664 19.4058 4.251896 30.949204 14.356839
2009-07-09 07:58:40 51°18.232 3°2.662 19.3996 4.251896 30.949204 14.322015
2009-07-09 07:58:44 51°18.231 3°2.66 19.4004 4.251896 30.949204 14.322015
2009-07-09 07:58:50 51°18.23 3°2.657 19.4026 4.252 30.950047 14.287191
2009-07-09 07:58:55 51°18.229 3°2.655 19.3998 4.252 30.950047 14.287191
2009-07-09 07:59:00 51°18.229 3°2.654 19.4029 4.252 30.949471 14.356839
2009-07-09 07:59:05 51°18.228 3°2.651 19.4015 4.252104 30.949161 14.356839
2009-07-09 07:59:10 51°18.227 3°2.649 19.4046 4.252104 30.949737 14.356839
2009-07-09 07:59:14 51°18.227 3°2.648 19.4018 4.252 30.948894 14.322015
2009-07-09 07:59:20 51°18.226 3°2.645 19.4015 4.252104 30.949737 14.287191
2009-07-09 07:59:25 51°18.225 3°2.643 19.405 4.252104 30.949737 14.287191
2009-07-09 07:59:30 51°18.225 3°2.641 19.4027 4.252104 30.949737 14.322015
2009-07-09 07:59:34 51°18.224 3°2.64 19.4036 4.252104 30.949737 14.287191
2009-07-09 07:59:39 51°18.223 3°2.637 19.4007 4.252 30.948894 14.322015
2009-07-09 07:59:45 51°18.222 3°2.635 19.4037 4.252 30.948894 14.322015
2009-07-09 07:59:50 51°18.222 3°2.633 19.4011 4.252104 30.949161 14.252367
2009-07-09 07:59:55 51°18.221 3°2.631 19.4016 4.252104 30.949161 14.252367
2009-07-09 07:59:59 51°18.22 3°2.629 19.4006 4.252207 30.949427 14.287191
2009-07-09 08:00:05 51°18.219 3°2.627 19.4051 4.252311 30.949693 14.252367
2009-07-09 08:00:10 51°18.218 3°2.625 19.401 4.252311 30.949117 14.217543
2009-07-09 08:00:14 51°18.218 3°2.623 19.401 4.252207 30.948851 14.252367
2009-07-09 08:00:20 51°18.217 3°2.621 19.4015 4.252207 30.948851 14.217543
2009-07-09 08:00:24 51°18.216 3°2.619 19.4036 4.252207 30.948851 14.217543
2009-07-09 08:00:30 51°18.215 3°2.616 19.4043 4.252207 30.949427 14.217543
2009-07-09 08:00:34 51°18.215 3°2.615 19.4019 4.252104 30.948584 14.217543
2009-07-09 08:00:40 51°18.214 3°2.612 19.4011 4.252104 30.948584 14.217543
2009-07-09 08:00:45 51°18.213 3°2.61 19.4002 4.252104 30.948584 14.182719
2009-07-09 08:00:50 51°18.212 3°2.608 19.403 4.252104 30.949161 14.182719
2009-07-09 08:00:55 51°18.211 3°2.606 19.4021 4.252104 30.949161 14.182719
2009-07-09 08:01:00 51°18.21 3°2.604 19.4022 4.252104 30.948584 14.182719
2009-07-09 08:01:05 51°18.21 3°2.602 19.404 4.252207 30.948851 14.147895
2009-07-09 08:01:10 51°18.209 3°2.6 19.4045 4.252207 30.949427 14.182719
2009-07-09 08:01:14 51°18.208 3°2.598 19.4062 4.252104 30.948584 14.182719
2009-07-09 08:01:20 51°18.207 3°2.596 19.4051 4.252 30.948318 14.147895
2009-07-09 08:01:24 51°18.207 3°2.594 19.4049 4.252 30.948318 14.147895
2009-07-09 08:01:30 51°18.206 3°2.591 19.4067 4.252 30.948318 14.147895
2009-07-09 08:01:34 51°18.205 3°2.59 19.4101 4.252104 30.949161 14.113071
2009-07-09 08:01:40 51°18.204 3°2.587 19.4071 4.252104 30.948584 14.147895
2009-07-09 08:01:45 51°18.203 3°2.586 19.4074 4.252207 30.948851 14.147895
2009-07-09 08:01:50 51°18.202 3°2.583 19.4045 4.252311 30.948541 14.113071
2009-07-09 08:01:54 51°18.202 3°2.582 19.4019 4.252311 30.948541 14.113071
2009-07-09 08:02:00 51°18.2 3°2.579 19.4038 4.252415 30.948807 14.113071
2009-07-09 08:02:05 51°18.2 3°2.577 19.4068 4.252415 30.948807 14.113071
2009-07-09 08:02:10 51°18.199 3°2.575 19.4032 4.252519 30.949074 14.147895
2009-07-09 08:02:14 51°18.198 3°2.574 19.4055 4.252622 30.94934 14.113071
2009-07-09 08:02:20 51°18.197 3°2.571 19.4048 4.252519 30.949074 14.113071
2009-07-09 08:02:25 51°18.196 3°2.569 19.405 4.252519 30.949074 14.113071
2009-07-09 08:02:30 51°18.196 3°2.567 19.3999 4.252415 30.948807 14.113071
2009-07-09 08:02:35 51°18.195 3°2.565 19.4017 4.252311 30.948541 14.113071
2009-07-09 08:02:39 51°18.194 3°2.564 19.4029 4.252415 30.949384 14.147895
2009-07-09 08:02:45 51°18.193 3°2.561 19.4038 4.252311 30.948541 14.147895
2009-07-09 08:02:50 51°18.192 3°2.559 19.4065 4.252207 30.947698 14.147895
2009-07-09 08:02:54 51°18.191 3°2.557 19.406 4.252207 30.947698 14.147895
2009-07-09 08:03:00 51°18.19 3°2.555 19.4046 4.252311 30.948541 14.078247
2009-07-09 08:03:05 51°18.189 3°2.553 19.4023 4.252207 30.948274 14.113071
2009-07-09 08:03:10 51°18.188 3°2.552 19.4041 4.252104 30.948008 14.078247
2009-07-09 08:03:14 51°18.187 3°2.55 19.4062 4.252104 30.948008 14.113071
2009-07-09 08:03:19 51°18.187 3°2.548 19.4077 4.252311 30.949117 14.113071
2009-07-09 08:03:25 51°18.185 3°2.545 19.4032 4.252311 30.949117 14.113071
2009-07-09 08:03:30 51°18.185 3°2.544 19.4054 4.252311 30.948541 14.147895
2009-07-09 08:03:34 51°18.183 3°2.542 19.4107 4.252207 30.947698 14.113071
2009-07-09 08:03:40 51°18.183 3°2.54 19.4102 4.252207 30.948274 14.078247
2009-07-09 08:03:44 51°18.181 3°2.538 19.4117 4.252207 30.948274 14.078247
2009-07-09 08:03:50 51°18.181 3°2.536 19.4079 4.252311 30.948541 14.113071
2009-07-09 08:03:54 51°18.18 3°2.534 19.4077 4.252311 30.948541 14.113071
2009-07-09 08:04:00 51°18.179 3°2.532 19.4067 4.252311 30.947965 14.078247
2009-07-09 08:04:05 51°18.178 3°2.529 19.4077 4.252311 30.947965 14.078247
2009-07-09 08:04:10 51°18.178 3°2.528 19.4056 4.252415 30.948231 14.078247
2009-07-09 08:04:14 51°18.176 3°2.526 19.4045 4.252519 30.947921 14.078247
2009-07-09 08:04:20 51°18.176 3°2.524 19.4065 4.252622 30.948188 14.078247